<?xml version="1.0" encoding="UTF-8" standalone="no" ?><gpx xmlns="http://www.topografix.com/GPX/1/1" xmlns:gpxx="http://www.garmin.com/xmlschemas/GpxExtensions/v3" xmlns:wptx1="http://www.garmin.com/xmlschemas/WaypointExtension/v1" xmlns:gpxtpx="http://www.garmin.com/xmlschemas/TrackPointExtension/v1" creator="Dakota 20" version="1.1" xmlns:xsi="http://www.w3.org/2001/XMLSchema-instance" xsi:schemaLocation="http://www.topografix.com/GPX/1/1 http://www.topografix.com/GPX/1/1/gpx.xsd http://www.garmin.com/xmlschemas/GpxExtensions/v3 http://www8.garmin.com/xmlschemas/GpxExtensionsv3.xsd http://www.garmin.com/xmlschemas/WaypointExtension/v1 http://www8.garmin.com/xmlschemas/WaypointExtensionv1.xsd http://www.garmin.com/xmlschemas/TrackPointExtension/v1 http://www.garmin.com/xmlschemas/TrackPointExtensionv1.xsd"><metadata><link href="http://www.garmin.com"><text>Garmin International</text></link><time>2015-10-07T13:35:21Z</time></metadata><trk><name>Current Track: 07 OCT 2015 09:59</name><extensions><gpxx:TrackExtension><gpxx:DisplayColor>Cyan</gpxx:DisplayColor></gpxx:TrackExtension></extensions><trkseg><trkpt lat="51.9097129907" lon="-1.8289902806"><ele>148.18</ele><time>2015-10-07T08:59:11Z</time></trkpt><trkpt lat="51.9097178522" lon="-1.8289835751"><ele>149.62</ele><time>2015-10-07T08:59:27Z</time></trkpt></trkseg><trkseg><trkpt lat="51.9096959755" lon="-1.8289740197"><ele>149.14</ele><time>2015-10-07T09:00:23Z</time></trkpt><trkpt lat="51.9096948858" lon="-1.8289610278"><ele>148.66</ele><time>2015-10-07T09:00:24Z</time></trkpt><trkpt lat="51.9097503740" lon="-1.8289875146"><ele>149.14</ele><time>2015-10-07T09:00:40Z</time></trkpt><trkpt lat="51.9097337779" lon="-1.8289316911"><ele>149.14</ele><time>2015-10-07T09:00:56Z</time></trkpt><trkpt lat="51.9097192772" lon="-1.8288917933"><ele>149.14</ele><time>2015-10-07T09:01:16Z</time></trkpt><trkpt lat="51.9097309280" lon="-1.8288135063"><ele>149.14</ele><time>2015-10-07T09:01:20Z</time></trkpt><trkpt lat="51.9097258989" lon="-1.8287715968"><ele>148.66</ele><time>2015-10-07T09:01:24Z</time></trkpt><trkpt lat="51.9097379688" lon="-1.8287053797"><ele>148.66</ele><time>2015-10-07T09:01:28Z</time></trkpt><trkpt lat="51.9097668864" lon="-1.8285256717"><ele>148.66</ele><time>2015-10-07T09:01:42Z</time></trkpt><trkpt lat="51.9097730052" lon="-1.8284644838"><ele>149.14</ele><time>2015-10-07T09:01:47Z</time></trkpt><trkpt lat="51.9097893499" lon="-1.8280898128"><ele>148.66</ele><time>2015-10-07T09:02:03Z</time></trkpt><trkpt lat="51.9097866677" lon="-1.8278156407"><ele>148.18</ele><time>2015-10-07T09:02:14Z</time></trkpt><trkpt lat="51.9097775314" lon="-1.8275124673"><ele>147.70</ele><time>2015-10-07T09:02:32Z</time></trkpt><trkpt lat="51.9097465184" lon="-1.8272013310"><ele>147.70</ele><time>2015-10-07T09:02:48Z</time></trkpt><trkpt lat="51.9097160921" lon="-1.8268277496"><ele>147.70</ele><time>2015-10-07T09:03:07Z</time></trkpt><trkpt lat="51.9097146671" lon="-1.8267978262"><ele>147.70</ele><time>2015-10-07T09:03:08Z</time></trkpt><trkpt lat="51.9096949697" lon="-1.8266777135"><ele>147.70</ele><time>2015-10-07T09:03:12Z</time></trkpt><trkpt lat="51.9096831512" lon="-1.8263113406"><ele>147.22</ele><time>2015-10-07T09:03:27Z</time></trkpt><trkpt lat="51.9096722547" lon="-1.8261133600"><ele>147.22</ele><time>2015-10-07T09:03:35Z</time></trkpt><trkpt lat="51.9096813072" lon="-1.8257735576"><ele>147.22</ele><time>2015-10-07T09:03:49Z</time></trkpt><trkpt lat="51.9096537307" lon="-1.8253384531"><ele>146.74</ele><time>2015-10-07T09:04:09Z</time></trkpt><trkpt lat="51.9096304290" lon="-1.8252925202"><ele>146.74</ele><time>2015-10-07T09:04:12Z</time></trkpt><trkpt lat="51.9095927104" lon="-1.8251812924"><ele>146.26</ele><time>2015-10-07T09:04:18Z</time></trkpt><trkpt lat="51.9095615298" lon="-1.8250349443"><ele>146.26</ele><time>2015-10-07T09:04:32Z</time></trkpt><trkpt lat="51.9094575942" lon="-1.8247583415"><ele>146.74</ele><time>2015-10-07T09:04:49Z</time></trkpt><trkpt lat="51.9093877729" lon="-1.8244546652"><ele>146.26</ele><time>2015-10-07T09:05:08Z</time></trkpt><trkpt lat="51.9092926383" lon="-1.8240004499"><ele>146.74</ele><time>2015-10-07T09:05:24Z</time></trkpt><trkpt lat="51.9091677479" lon="-1.8237212487"><ele>146.26</ele><time>2015-10-07T09:05:41Z</time></trkpt><trkpt lat="51.9089489803" lon="-1.8233890738"><ele>147.22</ele><time>2015-10-07T09:06:01Z</time></trkpt><trkpt lat="51.9087497424" lon="-1.8233184982"><ele>147.70</ele><time>2015-10-07T09:06:21Z</time></trkpt><trkpt lat="51.9085847866" lon="-1.8233293109"><ele>147.70</ele><time>2015-10-07T09:06:39Z</time></trkpt><trkpt lat="51.9085243531" lon="-1.8233045842"><ele>147.70</ele><time>2015-10-07T09:06:54Z</time></trkpt><trkpt lat="51.9083066750" lon="-1.8232379481"><ele>148.18</ele><time>2015-10-07T09:07:14Z</time></trkpt><trkpt lat="51.9080838002" lon="-1.8231985532"><ele>148.18</ele><time>2015-10-07T09:07:36Z</time></trkpt><trkpt lat="51.9078837242" lon="-1.8231165782"><ele>148.66</ele><time>2015-10-07T09:07:56Z</time></trkpt><trkpt lat="51.9077168405" lon="-1.8230401352"><ele>148.66</ele><time>2015-10-07T09:08:12Z</time></trkpt><trkpt lat="51.9075550698" lon="-1.8229642790"><ele>148.18</ele><time>2015-10-07T09:08:30Z</time></trkpt><trkpt lat="51.9075549860" lon="-1.8229357805"><ele>148.18</ele><time>2015-10-07T09:08:33Z</time></trkpt><trkpt lat="51.9075341150" lon="-1.8228731677"><ele>148.18</ele><time>2015-10-07T09:08:41Z</time></trkpt><trkpt lat="51.9073732663" lon="-1.8227708247"><ele>148.18</ele><time>2015-10-07T09:09:00Z</time></trkpt><trkpt lat="51.9071782194" lon="-1.8226618599"><ele>147.70</ele><time>2015-10-07T09:09:19Z</time></trkpt><trkpt lat="51.9070297759" lon="-1.8224330340"><ele>147.70</ele><time>2015-10-07T09:09:38Z</time></trkpt><trkpt lat="51.9068934023" lon="-1.8222368136"><ele>147.22</ele><time>2015-10-07T09:09:57Z</time></trkpt><trkpt lat="51.9067606330" lon="-1.8219650723"><ele>146.74</ele><time>2015-10-07T09:10:16Z</time></trkpt><trkpt lat="51.9066426996" lon="-1.8217079993"><ele>147.22</ele><time>2015-10-07T09:10:35Z</time></trkpt><trkpt lat="51.9065223355" lon="-1.8214762397"><ele>147.22</ele><time>2015-10-07T09:10:54Z</time></trkpt><trkpt lat="51.9064082578" lon="-1.8212809414"><ele>147.70</ele><time>2015-10-07T09:11:11Z</time></trkpt><trkpt lat="51.9062941801" lon="-1.8210504390"><ele>147.70</ele><time>2015-10-07T09:11:28Z</time></trkpt><trkpt lat="51.9061950222" lon="-1.8208153266"><ele>147.70</ele><time>2015-10-07T09:11:42Z</time></trkpt><trkpt lat="51.9061137177" lon="-1.8205430824"><ele>147.70</ele><time>2015-10-07T09:12:01Z</time></trkpt><trkpt lat="51.9060365204" lon="-1.8202843331"><ele>148.18</ele><time>2015-10-07T09:12:19Z</time></trkpt><trkpt lat="51.9059946109" lon="-1.8200090714"><ele>148.18</ele><time>2015-10-07T09:12:35Z</time></trkpt><trkpt lat="51.9059361052" lon="-1.8197149504"><ele>147.70</ele><time>2015-10-07T09:12:53Z</time></trkpt><trkpt lat="51.9059150666" lon="-1.8195480667"><ele>146.74</ele><time>2015-10-07T09:13:03Z</time></trkpt><trkpt lat="51.9058731571" lon="-1.8192437198"><ele>145.78</ele><time>2015-10-07T09:13:20Z</time></trkpt><trkpt lat="51.9058377855" lon="-1.8189615849"><ele>145.78</ele><time>2015-10-07T09:13:37Z</time></trkpt><trkpt lat="51.9057913497" lon="-1.8186548911"><ele>145.78</ele><time>2015-10-07T09:13:57Z</time></trkpt><trkpt lat="51.9057448301" lon="-1.8183244765"><ele>144.82</ele><time>2015-10-07T09:14:17Z</time></trkpt><trkpt lat="51.9057082012" lon="-1.8180195428"><ele>144.82</ele><time>2015-10-07T09:14:35Z</time></trkpt><trkpt lat="51.9056712370" lon="-1.8176758848"><ele>144.34</ele><time>2015-10-07T09:14:56Z</time></trkpt><trkpt lat="51.9056639448" lon="-1.8173587136"><ele>144.34</ele><time>2015-10-07T09:15:14Z</time></trkpt><trkpt lat="51.9056574907" lon="-1.8170908280"><ele>143.85</ele><time>2015-10-07T09:15:32Z</time></trkpt><trkpt lat="51.9056729134" lon="-1.8169604056"><ele>143.85</ele><time>2015-10-07T09:15:46Z</time></trkpt><trkpt lat="51.9057025854" lon="-1.8165912665"><ele>143.85</ele><time>2015-10-07T09:16:06Z</time></trkpt><trkpt lat="51.9057352748" lon="-1.8162802141"><ele>143.85</ele><time>2015-10-07T09:16:24Z</time></trkpt><trkpt lat="51.9057617616" lon="-1.8159632105"><ele>143.85</ele><time>2015-10-07T09:16:42Z</time></trkpt><trkpt lat="51.9057733286" lon="-1.8156621326"><ele>143.85</ele><time>2015-10-07T09:17:00Z</time></trkpt><trkpt lat="51.9057753403" lon="-1.8155761342"><ele>143.85</ele><time>2015-10-07T09:17:08Z</time></trkpt><trkpt lat="51.9058002345" lon="-1.8152416125"><ele>144.34</ele><time>2015-10-07T09:17:27Z</time></trkpt><trkpt lat="51.9057973847" lon="-1.8152250163"><ele>144.34</ele><time>2015-10-07T09:17:29Z</time></trkpt><trkpt lat="51.9057875779" lon="-1.8150949292"><ele>144.34</ele><time>2015-10-07T09:17:46Z</time></trkpt><trkpt lat="51.9058055989" lon="-1.8149628304"><ele>144.34</ele><time>2015-10-07T09:17:55Z</time></trkpt><trkpt lat="51.9057709817" lon="-1.8147316575"><ele>144.34</ele><time>2015-10-07T09:18:07Z</time></trkpt><trkpt lat="51.9056528807" lon="-1.8144814577"><ele>145.30</ele><time>2015-10-07T09:18:26Z</time></trkpt><trkpt lat="51.9055127352" lon="-1.8142652046"><ele>145.78</ele><time>2015-10-07T09:18:44Z</time></trkpt><trkpt lat="51.9053476118" lon="-1.8140776176"><ele>145.78</ele><time>2015-10-07T09:19:04Z</time></trkpt><trkpt lat="51.9051494636" lon="-1.8139289226"><ele>146.74</ele><time>2015-10-07T09:19:25Z</time></trkpt><trkpt lat="51.9049809035" lon="-1.8137792218"><ele>146.26</ele><time>2015-10-07T09:19:44Z</time></trkpt><trkpt lat="51.9048799854" lon="-1.8137370609"><ele>146.26</ele><time>2015-10-07T09:20:01Z</time></trkpt><trkpt lat="51.9048697595" lon="-1.8137295172"><ele>146.74</ele><time>2015-10-07T09:20:02Z</time></trkpt><trkpt lat="51.9047995191" lon="-1.8137081433"><ele>146.26</ele><time>2015-10-07T09:20:09Z</time></trkpt><trkpt lat="51.9046160392" lon="-1.8136038724"><ele>144.82</ele><time>2015-10-07T09:20:26Z</time></trkpt><trkpt lat="51.9045398477" lon="-1.8135969993"><ele>144.82</ele><time>2015-10-07T09:20:41Z</time></trkpt><trkpt lat="51.9044938311" lon="-1.8136158586"><ele>144.82</ele><time>2015-10-07T09:20:47Z</time></trkpt><trkpt lat="51.9043680187" lon="-1.8136222288"><ele>144.34</ele><time>2015-10-07T09:21:03Z</time></trkpt><trkpt lat="51.9043701142" lon="-1.8136103265"><ele>144.34</ele><time>2015-10-07T09:21:14Z</time></trkpt><trkpt lat="51.9042331539" lon="-1.8136698380"><ele>144.82</ele><time>2015-10-07T09:21:30Z</time></trkpt><trkpt lat="51.9041465688" lon="-1.8137141783"><ele>143.85</ele><time>2015-10-07T09:21:47Z</time></trkpt><trkpt lat="51.9039310701" lon="-1.8138542399"><ele>143.85</ele><time>2015-10-07T09:22:07Z</time></trkpt><trkpt lat="51.9037993066" lon="-1.8138958141"><ele>143.85</ele><time>2015-10-07T09:22:22Z</time></trkpt><trkpt lat="51.9035667926" lon="-1.8139517214"><ele>143.37</ele><time>2015-10-07T09:22:42Z</time></trkpt><trkpt lat="51.9033678062" lon="-1.8139506318"><ele>143.85</ele><time>2015-10-07T09:23:03Z</time></trkpt><trkpt lat="51.9031760283" lon="-1.8139170203"><ele>143.85</ele><time>2015-10-07T09:23:23Z</time></trkpt><trkpt lat="51.9029807299" lon="-1.8138549104"><ele>144.34</ele><time>2015-10-07T09:23:41Z</time></trkpt><trkpt lat="51.9027982559" lon="-1.8137091491"><ele>144.34</ele><time>2015-10-07T09:24:01Z</time></trkpt><trkpt lat="51.9027241599" lon="-1.8136311974"><ele>144.82</ele><time>2015-10-07T09:24:10Z</time></trkpt><trkpt lat="51.9025653228" lon="-1.8134610448"><ele>144.34</ele><time>2015-10-07T09:24:29Z</time></trkpt><trkpt lat="51.9024508260" lon="-1.8132807501"><ele>143.85</ele><time>2015-10-07T09:24:45Z</time></trkpt><trkpt lat="51.9024058990" lon="-1.8132551014"><ele>142.89</ele><time>2015-10-07T09:25:00Z</time></trkpt><trkpt lat="51.9023106806" lon="-1.8132666685"><ele>142.89</ele><time>2015-10-07T09:25:21Z</time></trkpt><trkpt lat="51.9022264425" lon="-1.8132400978"><ele>142.89</ele><time>2015-10-07T09:25:37Z</time></trkpt><trkpt lat="51.9022142049" lon="-1.8132413551"><ele>143.37</ele><time>2015-10-07T09:25:57Z</time></trkpt><trkpt lat="51.9022147916" lon="-1.8132408522"><ele>143.37</ele><time>2015-10-07T09:26:20Z</time></trkpt><trkpt lat="51.9021834433" lon="-1.8132835161"><ele>142.89</ele><time>2015-10-07T09:26:44Z</time></trkpt><trkpt lat="51.9021184836" lon="-1.8133725319"><ele>143.37</ele><time>2015-10-07T09:27:04Z</time></trkpt><trkpt lat="51.9019782543" lon="-1.8134970032"><ele>142.89</ele><time>2015-10-07T09:27:22Z</time></trkpt><trkpt lat="51.9018729776" lon="-1.8135416787"><ele>143.37</ele><time>2015-10-07T09:27:42Z</time></trkpt><trkpt lat="51.9018564653" lon="-1.8135277648"><ele>143.37</ele><time>2015-10-07T09:28:16Z</time></trkpt><trkpt lat="51.9018625002" lon="-1.8135174550"><ele>143.37</ele><time>2015-10-07T09:28:41Z</time></trkpt><trkpt lat="51.9017589837" lon="-1.8135332130"><ele>143.85</ele><time>2015-10-07T09:28:59Z</time></trkpt><trkpt lat="51.9017305691" lon="-1.8135408405"><ele>143.85</ele><time>2015-10-07T09:29:02Z</time></trkpt><trkpt lat="51.9015164115" lon="-1.8135075644"><ele>143.85</ele><time>2015-10-07T09:29:20Z</time></trkpt><trkpt lat="51.9012954645" lon="-1.8135734461"><ele>144.34</ele><time>2015-10-07T09:29:37Z</time></trkpt><trkpt lat="51.9012235478" lon="-1.8137156032"><ele>144.82</ele><time>2015-10-07T09:29:50Z</time></trkpt><trkpt lat="51.9013591669" lon="-1.8140072096"><ele>143.37</ele><time>2015-10-07T09:30:11Z</time></trkpt><trkpt lat="51.9014031719" lon="-1.8141327705"><ele>143.37</ele><time>2015-10-07T09:30:28Z</time></trkpt><trkpt lat="51.9014175888" lon="-1.8141646218"><ele>142.89</ele><time>2015-10-07T09:30:53Z</time></trkpt><trkpt lat="51.9014345203" lon="-1.8144843075"><ele>142.89</ele><time>2015-10-07T09:31:11Z</time></trkpt><trkpt lat="51.9015378691" lon="-1.8147416320"><ele>143.37</ele><time>2015-10-07T09:31:29Z</time></trkpt><trkpt lat="51.9015822932" lon="-1.8149960227"><ele>142.89</ele><time>2015-10-07T09:31:49Z</time></trkpt><trkpt lat="51.9016372785" lon="-1.8152535148"><ele>143.37</ele><time>2015-10-07T09:32:10Z</time></trkpt><trkpt lat="51.9016509410" lon="-1.8155092467"><ele>143.85</ele><time>2015-10-07T09:32:28Z</time></trkpt><trkpt lat="51.9015351031" lon="-1.8159311078"><ele>144.34</ele><time>2015-10-07T09:32:47Z</time></trkpt><trkpt lat="51.9014742505" lon="-1.8162473571"><ele>144.82</ele><time>2015-10-07T09:33:09Z</time></trkpt><trkpt lat="51.9014296588" lon="-1.8164626043"><ele>144.82</ele><time>2015-10-07T09:33:29Z</time></trkpt><trkpt lat="51.9013703149" lon="-1.8166774325"><ele>145.30</ele><time>2015-10-07T09:33:45Z</time></trkpt><trkpt lat="51.9013131503" lon="-1.8168846332"><ele>145.30</ele><time>2015-10-07T09:34:05Z</time></trkpt><trkpt lat="51.9013109710" lon="-1.8170910794"><ele>145.78</ele><time>2015-10-07T09:34:25Z</time></trkpt><trkpt lat="51.9011969771" lon="-1.8175655790"><ele>145.30</ele><time>2015-10-07T09:34:45Z</time></trkpt><trkpt lat="51.9011754356" lon="-1.8178418465"><ele>146.26</ele><time>2015-10-07T09:34:59Z</time></trkpt><trkpt lat="51.9011610188" lon="-1.8180171121"><ele>145.30</ele><time>2015-10-07T09:35:12Z</time></trkpt><trkpt lat="51.9011332747" lon="-1.8182993308"><ele>145.78</ele><time>2015-10-07T09:35:28Z</time></trkpt><trkpt lat="51.9011620246" lon="-1.8185082916"><ele>146.74</ele><time>2015-10-07T09:35:42Z</time></trkpt><trkpt lat="51.9011728372" lon="-1.8185371254"><ele>146.26</ele><time>2015-10-07T09:35:44Z</time></trkpt><trkpt lat="51.9011718314" lon="-1.8188040890"><ele>146.26</ele><time>2015-10-07T09:36:00Z</time></trkpt><trkpt lat="51.9012147468" lon="-1.8190522771"><ele>146.74</ele><time>2015-10-07T09:36:14Z</time></trkpt><trkpt lat="51.9012353662" lon="-1.8191782571"><ele>146.74</ele><time>2015-10-07T09:36:30Z</time></trkpt><trkpt lat="51.9011885114" lon="-1.8194142915"><ele>146.74</ele><time>2015-10-07T09:36:47Z</time></trkpt><trkpt lat="51.9011626113" lon="-1.8196975160"><ele>147.22</ele><time>2015-10-07T09:37:03Z</time></trkpt><trkpt lat="51.9011263177" lon="-1.8199057225"><ele>147.22</ele><time>2015-10-07T09:37:18Z</time></trkpt><trkpt lat="51.9010951370" lon="-1.8201539945"><ele>147.22</ele><time>2015-10-07T09:37:34Z</time></trkpt><trkpt lat="51.9010727573" lon="-1.8202849198"><ele>147.22</ele><time>2015-10-07T09:37:40Z</time></trkpt><trkpt lat="51.9010231365" lon="-1.8204230536"><ele>147.22</ele><time>2015-10-07T09:37:48Z</time></trkpt><trkpt lat="51.9009476155" lon="-1.8207060266"><ele>147.70</ele><time>2015-10-07T09:38:06Z</time></trkpt><trkpt lat="51.9009466097" lon="-1.8209572323"><ele>147.22</ele><time>2015-10-07T09:38:23Z</time></trkpt><trkpt lat="51.9009115733" lon="-1.8212020677"><ele>147.70</ele><time>2015-10-07T09:38:40Z</time></trkpt><trkpt lat="51.9008782133" lon="-1.8214949314"><ele>147.22</ele><time>2015-10-07T09:38:58Z</time></trkpt><trkpt lat="51.9009114895" lon="-1.8217426166"><ele>147.70</ele><time>2015-10-07T09:39:14Z</time></trkpt><trkpt lat="51.9009124115" lon="-1.8217751384"><ele>147.70</ele><time>2015-10-07T09:39:16Z</time></trkpt><trkpt lat="51.9009073824" lon="-1.8218104262"><ele>147.70</ele><time>2015-10-07T09:39:18Z</time></trkpt><trkpt lat="51.9008897804" lon="-1.8219162896"><ele>147.70</ele><time>2015-10-07T09:39:25Z</time></trkpt><trkpt lat="51.9008549955" lon="-1.8221844267"><ele>148.18</ele><time>2015-10-07T09:39:41Z</time></trkpt><trkpt lat="51.9009899441" lon="-1.8223888613"><ele>148.18</ele><time>2015-10-07T09:39:57Z</time></trkpt><trkpt lat="51.9010808039" lon="-1.8226629496"><ele>148.66</ele><time>2015-10-07T09:40:16Z</time></trkpt><trkpt lat="51.9011322688" lon="-1.8227811344"><ele>148.18</ele><time>2015-10-07T09:40:25Z</time></trkpt><trkpt lat="51.9011878408" lon="-1.8229986448"><ele>148.18</ele><time>2015-10-07T09:40:41Z</time></trkpt><trkpt lat="51.9012751803" lon="-1.8232743256"><ele>148.66</ele><time>2015-10-07T09:41:01Z</time></trkpt><trkpt lat="51.9013294112" lon="-1.8234727252"><ele>149.14</ele><time>2015-10-07T09:41:19Z</time></trkpt><trkpt lat="51.9013922755" lon="-1.8237167224"><ele>149.62</ele><time>2015-10-07T09:41:35Z</time></trkpt><trkpt lat="51.9014007412" lon="-1.8239996117"><ele>149.62</ele><time>2015-10-07T09:41:52Z</time></trkpt><trkpt lat="51.9014006574" lon="-1.8240195606"><ele>149.14</ele><time>2015-10-07T09:41:53Z</time></trkpt><trkpt lat="51.9014170859" lon="-1.8243064731"><ele>149.62</ele><time>2015-10-07T09:42:08Z</time></trkpt><trkpt lat="51.9014898408" lon="-1.8243909627"><ele>150.10</ele><time>2015-10-07T09:42:24Z</time></trkpt><trkpt lat="51.9014632702" lon="-1.8244601972"><ele>149.62</ele><time>2015-10-07T09:42:36Z</time></trkpt><trkpt lat="51.9014506973" lon="-1.8244726863"><ele>149.62</ele><time>2015-10-07T09:42:53Z</time></trkpt><trkpt lat="51.9014619291" lon="-1.8244679086"><ele>149.14</ele><time>2015-10-07T09:43:10Z</time></trkpt><trkpt lat="51.9014637731" lon="-1.8244705908"><ele>149.14</ele><time>2015-10-07T09:43:12Z</time></trkpt><trkpt lat="51.9014776032" lon="-1.8245703354"><ele>149.62</ele><time>2015-10-07T09:43:19Z</time></trkpt><trkpt lat="51.9015135616" lon="-1.8246905319"><ele>149.62</ele><time>2015-10-07T09:43:26Z</time></trkpt><trkpt lat="51.9016306568" lon="-1.8250126485"><ele>149.14</ele><time>2015-10-07T09:43:40Z</time></trkpt><trkpt lat="51.9016774278" lon="-1.8252263870"><ele>149.14</ele><time>2015-10-07T09:43:51Z</time></trkpt><trkpt lat="51.9016913418" lon="-1.8252492696"><ele>149.62</ele><time>2015-10-07T09:43:53Z</time></trkpt><trkpt lat="51.9016993046" lon="-1.8253200967"><ele>149.62</ele><time>2015-10-07T09:43:57Z</time></trkpt><trkpt lat="51.9017070998" lon="-1.8254250381"><ele>149.62</ele><time>2015-10-07T09:44:03Z</time></trkpt><trkpt lat="51.9017663598" lon="-1.8255069293"><ele>149.62</ele><time>2015-10-07T09:44:18Z</time></trkpt><trkpt lat="51.9017748255" lon="-1.8255208433"><ele>150.10</ele><time>2015-10-07T09:44:37Z</time></trkpt><trkpt lat="51.9017727301" lon="-1.8255555443"><ele>149.62</ele><time>2015-10-07T09:44:39Z</time></trkpt><trkpt lat="51.9017749932" lon="-1.8255842105"><ele>149.62</ele><time>2015-10-07T09:44:41Z</time></trkpt><trkpt lat="51.9017920922" lon="-1.8257388566"><ele>150.10</ele><time>2015-10-07T09:44:49Z</time></trkpt><trkpt lat="51.9018008932" lon="-1.8258197419"><ele>149.62</ele><time>2015-10-07T09:44:53Z</time></trkpt><trkpt lat="51.9018612429" lon="-1.8260070775"><ele>150.10</ele><time>2015-10-07T09:45:04Z</time></trkpt><trkpt lat="51.9018638413" lon="-1.8260220811"><ele>150.10</ele><time>2015-10-07T09:45:05Z</time></trkpt><trkpt lat="51.9019334950" lon="-1.8261949997"><ele>150.10</ele><time>2015-10-07T09:45:16Z</time></trkpt><trkpt lat="51.9019742310" lon="-1.8264153600"><ele>150.10</ele><time>2015-10-07T09:45:28Z</time></trkpt><trkpt lat="51.9020095188" lon="-1.8266093172"><ele>150.58</ele><time>2015-10-07T09:45:37Z</time></trkpt><trkpt lat="51.9020206667" lon="-1.8266902026"><ele>150.58</ele><time>2015-10-07T09:45:41Z</time></trkpt><trkpt lat="51.9020411186" lon="-1.8269321881"><ele>150.58</ele><time>2015-10-07T09:45:55Z</time></trkpt><trkpt lat="51.9020505901" lon="-1.8269605190"><ele>150.58</ele><time>2015-10-07T09:45:57Z</time></trkpt><trkpt lat="51.9020717964" lon="-1.8270869181"><ele>150.58</ele><time>2015-10-07T09:46:04Z</time></trkpt><trkpt lat="51.9020506740" lon="-1.8274414726"><ele>151.06</ele><time>2015-10-07T09:46:23Z</time></trkpt><trkpt lat="51.9019822776" lon="-1.8277200032"><ele>151.54</ele><time>2015-10-07T09:46:38Z</time></trkpt><trkpt lat="51.9019614905" lon="-1.8279748969"><ele>152.03</ele><time>2015-10-07T09:46:54Z</time></trkpt><trkpt lat="51.9019604009" lon="-1.8281944189"><ele>152.03</ele><time>2015-10-07T09:47:08Z</time></trkpt><trkpt lat="51.9019496720" lon="-1.8282379210"><ele>151.54</ele><time>2015-10-07T09:47:24Z</time></trkpt><trkpt lat="51.9019571319" lon="-1.8282409385"><ele>152.03</ele><time>2015-10-07T09:47:38Z</time></trkpt><trkpt lat="51.9019546174" lon="-1.8282520026"><ele>152.03</ele><time>2015-10-07T09:47:57Z</time></trkpt><trkpt lat="51.9019348361" lon="-1.8282465544"><ele>152.03</ele><time>2015-10-07T09:48:17Z</time></trkpt><trkpt lat="51.9019446429" lon="-1.8282496557"><ele>152.03</ele><time>2015-10-07T09:48:33Z</time></trkpt><trkpt lat="51.9019635860" lon="-1.8282592110"><ele>152.03</ele><time>2015-10-07T09:48:49Z</time></trkpt><trkpt lat="51.9019624125" lon="-1.8282821774"><ele>152.03</ele><time>2015-10-07T09:49:19Z</time></trkpt><trkpt lat="51.9019784220" lon="-1.8283127714"><ele>152.03</ele><time>2015-10-07T09:49:38Z</time></trkpt><trkpt lat="51.9019963592" lon="-1.8283314630"><ele>151.54</ele><time>2015-10-07T09:49:46Z</time></trkpt><trkpt lat="51.9021116104" lon="-1.8285954930"><ele>153.47</ele><time>2015-10-07T09:50:02Z</time></trkpt><trkpt lat="51.9021803420" lon="-1.8288671505"><ele>156.35</ele><time>2015-10-07T09:50:18Z</time></trkpt><trkpt lat="51.9022318907" lon="-1.8290863372"><ele>159.24</ele><time>2015-10-07T09:50:33Z</time></trkpt><trkpt lat="51.9022895582" lon="-1.8292596750"><ele>161.64</ele><time>2015-10-07T09:50:45Z</time></trkpt><trkpt lat="51.9023095071" lon="-1.8293957971"><ele>163.56</ele><time>2015-10-07T09:50:59Z</time></trkpt><trkpt lat="51.9023390952" lon="-1.8296144810"><ele>166.45</ele><time>2015-10-07T09:51:15Z</time></trkpt><trkpt lat="51.9023534283" lon="-1.8296788540"><ele>166.45</ele><time>2015-10-07T09:51:31Z</time></trkpt><trkpt lat="51.9023804180" lon="-1.8298314046"><ele>167.89</ele><time>2015-10-07T09:51:49Z</time></trkpt><trkpt lat="51.9024141133" lon="-1.8299855478"><ele>170.77</ele><time>2015-10-07T09:52:06Z</time></trkpt><trkpt lat="51.9024796598" lon="-1.8300905731"><ele>172.21</ele><time>2015-10-07T09:52:21Z</time></trkpt><trkpt lat="51.9025941566" lon="-1.8301753141"><ele>174.14</ele><time>2015-10-07T09:52:35Z</time></trkpt><trkpt lat="51.9027115032" lon="-1.8302630726"><ele>176.54</ele><time>2015-10-07T09:52:50Z</time></trkpt><trkpt lat="51.9028261676" lon="-1.8303225003"><ele>178.46</ele><time>2015-10-07T09:53:04Z</time></trkpt><trkpt lat="51.9028852601" lon="-1.8303546868"><ele>179.90</ele><time>2015-10-07T09:53:21Z</time></trkpt><trkpt lat="51.9028917979" lon="-1.8303689361"><ele>179.42</ele><time>2015-10-07T09:53:44Z</time></trkpt><trkpt lat="51.9028943125" lon="-1.8303678464"><ele>179.42</ele><time>2015-10-07T09:54:12Z</time></trkpt><trkpt lat="51.9029073883" lon="-1.8303455506"><ele>183.75</ele><time>2015-10-07T09:54:28Z</time></trkpt><trkpt lat="51.9029074721" lon="-1.8303454667"><ele>180.38</ele><time>2015-10-07T09:54:29Z</time></trkpt><trkpt lat="51.9029011019" lon="-1.8303630687"><ele>179.90</ele><time>2015-10-07T09:54:46Z</time></trkpt><trkpt lat="51.9029029459" lon="-1.8303867057"><ele>175.58</ele><time>2015-10-07T09:55:04Z</time></trkpt><trkpt lat="51.9029043708" lon="-1.8303899746"><ele>179.42</ele><time>2015-10-07T09:55:05Z</time></trkpt><trkpt lat="51.9029043708" lon="-1.8303903937"><ele>182.79</ele><time>2015-10-07T09:55:06Z</time></trkpt><trkpt lat="51.9029042870" lon="-1.8303908966"><ele>179.90</ele><time>2015-10-07T09:55:07Z</time></trkpt><trkpt lat="51.9029018562" lon="-1.8303893879"><ele>179.90</ele><time>2015-10-07T09:55:27Z</time></trkpt><trkpt lat="51.9028931390" lon="-1.8303935789"><ele>183.27</ele><time>2015-10-07T09:55:49Z</time></trkpt><trkpt lat="51.9028899539" lon="-1.8303908128"><ele>180.38</ele><time>2015-10-07T09:55:50Z</time></trkpt><trkpt lat="51.9028954022" lon="-1.8303587940"><ele>179.90</ele><time>2015-10-07T09:56:03Z</time></trkpt><trkpt lat="51.9028931390" lon="-1.8303590454"><ele>180.38</ele><time>2015-10-07T09:56:22Z</time></trkpt><trkpt lat="51.9028884452" lon="-1.8303546030"><ele>179.90</ele><time>2015-10-07T09:56:50Z</time></trkpt><trkpt lat="51.9028840866" lon="-1.8303550221"><ele>179.90</ele><time>2015-10-07T09:57:15Z</time></trkpt><trkpt lat="51.9028812367" lon="-1.8303494062"><ele>179.90</ele><time>2015-10-07T09:57:43Z</time></trkpt><trkpt lat="51.9028765429" lon="-1.8303464726"><ele>179.90</ele><time>2015-10-07T09:58:07Z</time></trkpt><trkpt lat="51.9028814044" lon="-1.8303346541"><ele>180.38</ele><time>2015-10-07T09:58:27Z</time></trkpt><trkpt lat="51.9028902054" lon="-1.8303406052"><ele>180.38</ele><time>2015-10-07T09:59:01Z</time></trkpt><trkpt lat="51.9028914627" lon="-1.8303440418"><ele>180.38</ele><time>2015-10-07T09:59:36Z</time></trkpt><trkpt lat="51.9028902054" lon="-1.8303432036"><ele>180.87</ele><time>2015-10-07T10:00:00Z</time></trkpt><trkpt lat="51.9028930552" lon="-1.8303391803"><ele>180.87</ele><time>2015-10-07T10:00:29Z</time></trkpt><trkpt lat="51.9028948992" lon="-1.8303417787"><ele>181.35</ele><time>2015-10-07T10:00:44Z</time></trkpt><trkpt lat="51.9028912950" lon="-1.8303484004"><ele>181.35</ele><time>2015-10-07T10:01:10Z</time></trkpt><trkpt lat="51.9028884452" lon="-1.8303520884"><ele>181.35</ele><time>2015-10-07T10:01:40Z</time></trkpt><trkpt lat="51.9028862659" lon="-1.8303577881"><ele>181.35</ele><time>2015-10-07T10:02:08Z</time></trkpt><trkpt lat="51.9028860144" lon="-1.8303536810"><ele>181.35</ele><time>2015-10-07T10:02:40Z</time></trkpt><trkpt lat="51.9028864335" lon="-1.8303656671"><ele>181.35</ele><time>2015-10-07T10:03:11Z</time></trkpt><trkpt lat="51.9028732739" lon="-1.8303950038"><ele>176.06</ele><time>2015-10-07T10:03:16Z</time></trkpt><trkpt lat="51.9028712623" lon="-1.8303989433"><ele>184.23</ele><time>2015-10-07T10:03:17Z</time></trkpt><trkpt lat="51.9028692506" lon="-1.8304036371"><ele>180.87</ele><time>2015-10-07T10:03:18Z</time></trkpt><trkpt lat="51.9028655626" lon="-1.8304077443"><ele>180.87</ele><time>2015-10-07T10:03:38Z</time></trkpt><trkpt lat="51.9028667361" lon="-1.8304042239"><ele>180.87</ele><time>2015-10-07T10:04:06Z</time></trkpt><trkpt lat="51.9028695859" lon="-1.8304049782"><ele>180.87</ele><time>2015-10-07T10:04:31Z</time></trkpt><trkpt lat="51.9028714299" lon="-1.8304101750"><ele>180.87</ele><time>2015-10-07T10:05:04Z</time></trkpt><trkpt lat="51.9028972462" lon="-1.8304047268"><ele>181.35</ele><time>2015-10-07T10:05:14Z</time></trkpt><trkpt lat="51.9029767904" lon="-1.8304363266"><ele>182.79</ele><time>2015-10-07T10:05:26Z</time></trkpt><trkpt lat="51.9030662253" lon="-1.8304420263"><ele>184.23</ele><time>2015-10-07T10:05:37Z</time></trkpt><trkpt lat="51.9030817319" lon="-1.8304579519"><ele>183.75</ele><time>2015-10-07T10:05:39Z</time></trkpt><trkpt lat="51.9031303469" lon="-1.8304882105"><ele>186.15</ele><time>2015-10-07T10:05:44Z</time></trkpt><trkpt lat="51.9031386450" lon="-1.8304907251"><ele>182.31</ele><time>2015-10-07T10:05:45Z</time></trkpt><trkpt lat="51.9031458534" lon="-1.8304907251"><ele>185.19</ele><time>2015-10-07T10:05:46Z</time></trkpt><trkpt lat="51.9031935465" lon="-1.8305542599"><ele>186.15</ele><time>2015-10-07T10:05:54Z</time></trkpt><trkpt lat="51.9032608531" lon="-1.8305983488"><ele>189.52</ele><time>2015-10-07T10:06:02Z</time></trkpt><trkpt lat="51.9032672234" lon="-1.8306023721"><ele>184.71</ele><time>2015-10-07T10:06:03Z</time></trkpt><trkpt lat="51.9032994937" lon="-1.8306195550"><ele>187.59</ele><time>2015-10-07T10:06:07Z</time></trkpt><trkpt lat="51.9033099711" lon="-1.8306161184"><ele>187.59</ele><time>2015-10-07T10:06:08Z</time></trkpt><trkpt lat="51.9034409802" lon="-1.8306406774"><ele>188.08</ele><time>2015-10-07T10:06:19Z</time></trkpt><trkpt lat="51.9035420660" lon="-1.8307023682"><ele>189.04</ele><time>2015-10-07T10:06:34Z</time></trkpt><trkpt lat="51.9035805389" lon="-1.8307299446"><ele>188.56</ele><time>2015-10-07T10:06:48Z</time></trkpt><trkpt lat="51.9037050940" lon="-1.8307627179"><ele>188.08</ele><time>2015-10-07T10:07:05Z</time></trkpt><trkpt lat="51.9038302358" lon="-1.8308123387"><ele>190.00</ele><time>2015-10-07T10:07:21Z</time></trkpt><trkpt lat="51.9039465766" lon="-1.8308967445"><ele>190.00</ele><time>2015-10-07T10:07:39Z</time></trkpt><trkpt lat="51.9040745683" lon="-1.8309465330"><ele>190.96</ele><time>2015-10-07T10:07:56Z</time></trkpt><trkpt lat="51.9041015580" lon="-1.8309314456"><ele>190.96</ele><time>2015-10-07T10:07:58Z</time></trkpt><trkpt lat="51.9041854609" lon="-1.8309700023"><ele>191.92</ele><time>2015-10-07T10:08:06Z</time></trkpt><trkpt lat="51.9042835291" lon="-1.8310034461"><ele>191.44</ele><time>2015-10-07T10:08:16Z</time></trkpt><trkpt lat="51.9043571223" lon="-1.8310225569"><ele>191.44</ele><time>2015-10-07T10:08:26Z</time></trkpt><trkpt lat="51.9043816812" lon="-1.8310306873"><ele>191.44</ele><time>2015-10-07T10:08:29Z</time></trkpt><trkpt lat="51.9044311345" lon="-1.8310319446"><ele>190.96</ele><time>2015-10-07T10:08:34Z</time></trkpt><trkpt lat="51.9045132771" lon="-1.8310222216"><ele>191.44</ele><time>2015-10-07T10:08:44Z</time></trkpt><trkpt lat="51.9045190606" lon="-1.8310271669"><ele>190.96</ele><time>2015-10-07T10:09:04Z</time></trkpt><trkpt lat="51.9045222457" lon="-1.8310409132"><ele>190.96</ele><time>2015-10-07T10:09:30Z</time></trkpt><trkpt lat="51.9045165461" lon="-1.8310268316"><ele>190.96</ele><time>2015-10-07T10:09:50Z</time></trkpt><trkpt lat="51.9045130257" lon="-1.8310317770"><ele>191.44</ele><time>2015-10-07T10:10:09Z</time></trkpt><trkpt lat="51.9045099244" lon="-1.8310430087"><ele>190.48</ele><time>2015-10-07T10:10:38Z</time></trkpt><trkpt lat="51.9044883829" lon="-1.8310598563"><ele>190.96</ele><time>2015-10-07T10:10:41Z</time></trkpt><trkpt lat="51.9044582918" lon="-1.8310629576"><ele>190.00</ele><time>2015-10-07T10:10:44Z</time></trkpt><trkpt lat="51.9044172205" lon="-1.8310692441"><ele>190.48</ele><time>2015-10-07T10:10:48Z</time></trkpt><trkpt lat="51.9043381792" lon="-1.8310549948"><ele>190.48</ele><time>2015-10-07T10:10:58Z</time></trkpt><trkpt lat="51.9042689446" lon="-1.8310242333"><ele>190.00</ele><time>2015-10-07T10:11:11Z</time></trkpt><trkpt lat="51.9041812699" lon="-1.8310100678"><ele>190.48</ele><time>2015-10-07T10:11:22Z</time></trkpt><trkpt lat="51.9040894881" lon="-1.8309673201"><ele>190.48</ele><time>2015-10-07T10:11:32Z</time></trkpt><trkpt lat="51.9040798489" lon="-1.8309640512"><ele>190.00</ele><time>2015-10-07T10:11:33Z</time></trkpt><trkpt lat="51.9040350057" lon="-1.8309646379"><ele>190.00</ele><time>2015-10-07T10:11:38Z</time></trkpt><trkpt lat="51.9039884023" lon="-1.8309726007"><ele>189.52</ele><time>2015-10-07T10:11:41Z</time></trkpt><trkpt lat="51.9039462414" lon="-1.8309664819"><ele>190.00</ele><time>2015-10-07T10:11:45Z</time></trkpt><trkpt lat="51.9038904179" lon="-1.8309270032"><ele>190.00</ele><time>2015-10-07T10:11:51Z</time></trkpt><trkpt lat="51.9038654398" lon="-1.8309161067"><ele>190.00</ele><time>2015-10-07T10:11:53Z</time></trkpt><trkpt lat="51.9038337562" lon="-1.8309028633"><ele>190.48</ele><time>2015-10-07T10:11:56Z</time></trkpt><trkpt lat="51.9037450757" lon="-1.8308902066"><ele>189.52</ele><time>2015-10-07T10:12:03Z</time></trkpt><trkpt lat="51.9037158228" lon="-1.8308790587"><ele>189.52</ele><time>2015-10-07T10:12:06Z</time></trkpt><trkpt lat="51.9036882464" lon="-1.8308721855"><ele>189.52</ele><time>2015-10-07T10:12:09Z</time></trkpt><trkpt lat="51.9036568981" lon="-1.8308532424"><ele>189.04</ele><time>2015-10-07T10:12:12Z</time></trkpt><trkpt lat="51.9035553094" lon="-1.8307987601"><ele>188.56</ele><time>2015-10-07T10:12:23Z</time></trkpt><trkpt lat="51.9035384618" lon="-1.8307782244"><ele>188.08</ele><time>2015-10-07T10:12:25Z</time></trkpt><trkpt lat="51.9035123102" lon="-1.8307607062"><ele>187.59</ele><time>2015-10-07T10:12:29Z</time></trkpt><trkpt lat="51.9034703169" lon="-1.8307224009"><ele>187.11</ele><time>2015-10-07T10:12:35Z</time></trkpt><trkpt lat="51.9034310896" lon="-1.8307110015"><ele>187.59</ele><time>2015-10-07T10:12:39Z</time></trkpt><trkpt lat="51.9033181015" lon="-1.8306764681"><ele>187.11</ele><time>2015-10-07T10:12:52Z</time></trkpt><trkpt lat="51.9032912795" lon="-1.8306744564"><ele>185.19</ele><time>2015-10-07T10:12:55Z</time></trkpt><trkpt lat="51.9032163452" lon="-1.8306656554"><ele>185.19</ele><time>2015-10-07T10:13:01Z</time></trkpt><trkpt lat="51.9031575043" lon="-1.8306250032"><ele>184.23</ele><time>2015-10-07T10:13:07Z</time></trkpt><trkpt lat="51.9030895270" lon="-1.8305771425"><ele>183.75</ele><time>2015-10-07T10:13:17Z</time></trkpt><trkpt lat="51.9030575920" lon="-1.8305677548"><ele>183.75</ele><time>2015-10-07T10:13:20Z</time></trkpt><trkpt lat="51.9030129164" lon="-1.8305488955"><ele>183.27</ele><time>2015-10-07T10:13:24Z</time></trkpt><trkpt lat="51.9029751979" lon="-1.8305274379"><ele>181.83</ele><time>2015-10-07T10:13:31Z</time></trkpt><trkpt lat="51.9029480405" lon="-1.8305286113"><ele>182.79</ele><time>2015-10-07T10:13:34Z</time></trkpt><trkpt lat="51.9028910436" lon="-1.8304524198"><ele>181.35</ele><time>2015-10-07T10:13:42Z</time></trkpt><trkpt lat="51.9028249104" lon="-1.8304266036"><ele>180.38</ele><time>2015-10-07T10:13:53Z</time></trkpt><trkpt lat="51.9028174505" lon="-1.8304247595"><ele>180.38</ele><time>2015-10-07T10:14:14Z</time></trkpt><trkpt lat="51.9028214738" lon="-1.8304372486"><ele>180.38</ele><time>2015-10-07T10:14:21Z</time></trkpt><trkpt lat="51.9027838390" lon="-1.8304952513"><ele>179.90</ele><time>2015-10-07T10:14:31Z</time></trkpt><trkpt lat="51.9027630519" lon="-1.8305369932"><ele>179.42</ele><time>2015-10-07T10:14:37Z</time></trkpt><trkpt lat="51.9027227350" lon="-1.8305892125"><ele>179.42</ele><time>2015-10-07T10:14:44Z</time></trkpt><trkpt lat="51.9026825856" lon="-1.8306534179"><ele>178.94</ele><time>2015-10-07T10:14:53Z</time></trkpt><trkpt lat="51.9026100822" lon="-1.8307378236"><ele>178.46</ele><time>2015-10-07T10:15:03Z</time></trkpt><trkpt lat="51.9025992695" lon="-1.8307452835"><ele>177.98</ele><time>2015-10-07T10:15:04Z</time></trkpt><trkpt lat="51.9025576953" lon="-1.8308052141"><ele>177.50</ele><time>2015-10-07T10:15:11Z</time></trkpt><trkpt lat="51.9025359862" lon="-1.8308445252"><ele>177.50</ele><time>2015-10-07T10:15:16Z</time></trkpt><trkpt lat="51.9025224913" lon="-1.8308721855"><ele>177.98</ele><time>2015-10-07T10:15:19Z</time></trkpt><trkpt lat="51.9024591241" lon="-1.8309150171"><ele>175.58</ele><time>2015-10-07T10:15:28Z</time></trkpt><trkpt lat="51.9023867883" lon="-1.8309095688"><ele>175.58</ele><time>2015-10-07T10:15:38Z</time></trkpt><trkpt lat="51.9023591280" lon="-1.8308715150"><ele>175.10</ele><time>2015-10-07T10:15:42Z</time></trkpt><trkpt lat="51.9023375865" lon="-1.8308500573"><ele>174.14</ele><time>2015-10-07T10:15:44Z</time></trkpt><trkpt lat="51.9023022987" lon="-1.8308718503"><ele>173.66</ele><time>2015-10-07T10:15:54Z</time></trkpt><trkpt lat="51.9022762310" lon="-1.8309108261"><ele>172.69</ele><time>2015-10-07T10:16:00Z</time></trkpt><trkpt lat="51.9022505824" lon="-1.8309239857"><ele>172.21</ele><time>2015-10-07T10:16:12Z</time></trkpt><trkpt lat="51.9022448827" lon="-1.8309337925"><ele>172.21</ele><time>2015-10-07T10:16:38Z</time></trkpt><trkpt lat="51.9022231735" lon="-1.8309584353"><ele>169.81</ele><time>2015-10-07T10:16:50Z</time></trkpt><trkpt lat="51.9022042304" lon="-1.8309699185"><ele>169.81</ele><time>2015-10-07T10:17:03Z</time></trkpt><trkpt lat="51.9021766540" lon="-1.8310054578"><ele>167.89</ele><time>2015-10-07T10:17:14Z</time></trkpt><trkpt lat="51.9021767378" lon="-1.8310056254"><ele>167.89</ele><time>2015-10-07T10:17:15Z</time></trkpt><trkpt lat="51.9021616504" lon="-1.8310202099"><ele>166.93</ele><time>2015-10-07T10:17:30Z</time></trkpt><trkpt lat="51.9021656737" lon="-1.8310204614"><ele>167.89</ele><time>2015-10-07T10:17:50Z</time></trkpt><trkpt lat="51.9021620695" lon="-1.8310375605"><ele>167.41</ele><time>2015-10-07T10:18:02Z</time></trkpt><trkpt lat="51.9021503348" lon="-1.8310275860"><ele>165.96</ele><time>2015-10-07T10:18:04Z</time></trkpt><trkpt lat="51.9021408632" lon="-1.8310281727"><ele>166.45</ele><time>2015-10-07T10:18:20Z</time></trkpt><trkpt lat="51.9021423720" lon="-1.8310286757"><ele>165.96</ele><time>2015-10-07T10:18:22Z</time></trkpt><trkpt lat="51.9021370076" lon="-1.8310269155"><ele>166.93</ele><time>2015-10-07T10:18:36Z</time></trkpt><trkpt lat="51.9021495804" lon="-1.8310467806"><ele>167.41</ele><time>2015-10-07T10:18:40Z</time></trkpt><trkpt lat="51.9021665957" lon="-1.8311192002"><ele>166.93</ele><time>2015-10-07T10:18:50Z</time></trkpt><trkpt lat="51.9021588843" lon="-1.8311423343"><ele>166.45</ele><time>2015-10-07T10:19:07Z</time></trkpt><trkpt lat="51.9021674339" lon="-1.8312043604"><ele>165.48</ele><time>2015-10-07T10:19:18Z</time></trkpt><trkpt lat="51.9021875504" lon="-1.8312435877"><ele>165.00</ele><time>2015-10-07T10:19:29Z</time></trkpt><trkpt lat="51.9021878019" lon="-1.8312487844"><ele>165.00</ele><time>2015-10-07T10:19:30Z</time></trkpt><trkpt lat="51.9021992013" lon="-1.8312607706"><ele>165.48</ele><time>2015-10-07T10:19:44Z</time></trkpt><trkpt lat="51.9022014644" lon="-1.8312610220"><ele>165.96</ele><time>2015-10-07T10:19:47Z</time></trkpt><trkpt lat="51.9022165518" lon="-1.8312827311"><ele>165.48</ele><time>2015-10-07T10:19:51Z</time></trkpt><trkpt lat="51.9022213295" lon="-1.8312916160"><ele>162.60</ele><time>2015-10-07T10:20:10Z</time></trkpt><trkpt lat="51.9022214133" lon="-1.8312924542"><ele>167.41</ele><time>2015-10-07T10:20:11Z</time></trkpt><trkpt lat="51.9022317231" lon="-1.8312979024"><ele>165.00</ele><time>2015-10-07T10:20:15Z</time></trkpt><trkpt lat="51.9022368360" lon="-1.8313075416"><ele>166.93</ele><time>2015-10-07T10:20:17Z</time></trkpt><trkpt lat="51.9022352435" lon="-1.8313266523"><ele>165.00</ele><time>2015-10-07T10:20:36Z</time></trkpt><trkpt lat="51.9022367522" lon="-1.8313440867"><ele>164.52</ele><time>2015-10-07T10:20:47Z</time></trkpt><trkpt lat="51.9022494089" lon="-1.8313752674"><ele>164.04</ele><time>2015-10-07T10:21:01Z</time></trkpt><trkpt lat="51.9022494089" lon="-1.8314021733"><ele>163.08</ele><time>2015-10-07T10:21:20Z</time></trkpt><trkpt lat="51.9022393506" lon="-1.8314481061"><ele>161.64</ele><time>2015-10-07T10:21:32Z</time></trkpt><trkpt lat="51.9022356626" lon="-1.8314950448"><ele>161.16</ele><time>2015-10-07T10:21:48Z</time></trkpt><trkpt lat="51.9022381771" lon="-1.8315603398"><ele>160.68</ele><time>2015-10-07T10:22:02Z</time></trkpt><trkpt lat="51.9022370037" lon="-1.8316246290"><ele>159.72</ele><time>2015-10-07T10:22:14Z</time></trkpt><trkpt lat="51.9022057392" lon="-1.8316736631"><ele>158.75</ele><time>2015-10-07T10:22:22Z</time></trkpt><trkpt lat="51.9021775760" lon="-1.8316568155"><ele>158.75</ele><time>2015-10-07T10:22:35Z</time></trkpt><trkpt lat="51.9021498319" lon="-1.8316559773"><ele>158.27</ele><time>2015-10-07T10:22:39Z</time></trkpt><trkpt lat="51.9020743109" lon="-1.8315895088"><ele>157.31</ele><time>2015-10-07T10:22:49Z</time></trkpt><trkpt lat="51.9020502549" lon="-1.8315530475"><ele>158.27</ele><time>2015-10-07T10:22:54Z</time></trkpt><trkpt lat="51.9020159729" lon="-1.8315175083"><ele>157.79</ele><time>2015-10-07T10:22:58Z</time></trkpt><trkpt lat="51.9019820262" lon="-1.8314967211"><ele>156.83</ele><time>2015-10-07T10:23:02Z</time></trkpt><trkpt lat="51.9019425474" lon="-1.8314971402"><ele>156.83</ele><time>2015-10-07T10:23:06Z</time></trkpt><trkpt lat="51.9019105285" lon="-1.8314941227"><ele>157.31</ele><time>2015-10-07T10:23:09Z</time></trkpt><trkpt lat="51.9018726423" lon="-1.8314886745"><ele>156.35</ele><time>2015-10-07T10:23:14Z</time></trkpt><trkpt lat="51.9018344209" lon="-1.8314932846"><ele>156.83</ele><time>2015-10-07T10:23:18Z</time></trkpt><trkpt lat="51.9018251169" lon="-1.8314881716"><ele>157.31</ele><time>2015-10-07T10:23:20Z</time></trkpt><trkpt lat="51.9018112868" lon="-1.8314841483"><ele>156.83</ele><time>2015-10-07T10:23:22Z</time></trkpt><trkpt lat="51.9017868116" lon="-1.8314704858"><ele>156.83</ele><time>2015-10-07T10:23:32Z</time></trkpt><trkpt lat="51.9017791841" lon="-1.8314294983"><ele>155.87</ele><time>2015-10-07T10:23:36Z</time></trkpt><trkpt lat="51.9017591514" lon="-1.8313532230"><ele>156.83</ele><time>2015-10-07T10:23:40Z</time></trkpt><trkpt lat="51.9017317425" lon="-1.8312501255"><ele>155.39</ele><time>2015-10-07T10:23:47Z</time></trkpt><trkpt lat="51.9017186668" lon="-1.8311637919"><ele>153.95</ele><time>2015-10-07T10:23:54Z</time></trkpt><trkpt lat="51.9017187506" lon="-1.8311650492"><ele>157.79</ele><time>2015-10-07T10:23:55Z</time></trkpt><trkpt lat="51.9017190859" lon="-1.8311660551"><ele>157.79</ele><time>2015-10-07T10:23:56Z</time></trkpt><trkpt lat="51.9017261267" lon="-1.8311725929"><ele>156.35</ele><time>2015-10-07T10:24:04Z</time></trkpt><trkpt lat="51.9017353468" lon="-1.8312512990"><ele>156.83</ele><time>2015-10-07T10:24:11Z</time></trkpt><trkpt lat="51.9017366879" lon="-1.8312728405"><ele>155.39</ele><time>2015-10-07T10:24:13Z</time></trkpt><trkpt lat="51.9017384481" lon="-1.8312836532"><ele>156.83</ele><time>2015-10-07T10:24:15Z</time></trkpt><trkpt lat="51.9017449021" lon="-1.8313207012"><ele>156.83</ele><time>2015-10-07T10:24:17Z</time></trkpt><trkpt lat="51.9017576426" lon="-1.8314704858"><ele>156.35</ele><time>2015-10-07T10:24:25Z</time></trkpt><trkpt lat="51.9017418008" lon="-1.8316258863"><ele>156.35</ele><time>2015-10-07T10:24:38Z</time></trkpt><trkpt lat="51.9017208461" lon="-1.8316788599"><ele>156.35</ele><time>2015-10-07T10:24:53Z</time></trkpt><trkpt lat="51.9016779307" lon="-1.8318053428"><ele>156.83</ele><time>2015-10-07T10:25:03Z</time></trkpt><trkpt lat="51.9016594905" lon="-1.8318330869"><ele>156.35</ele><time>2015-10-07T10:25:06Z</time></trkpt><trkpt lat="51.9015875738" lon="-1.8319428060"><ele>156.35</ele><time>2015-10-07T10:25:18Z</time></trkpt><trkpt lat="51.9015848916" lon="-1.8319407105"><ele>156.35</ele><time>2015-10-07T10:25:31Z</time></trkpt><trkpt lat="51.9015292358" lon="-1.8320402876"><ele>156.35</ele><time>2015-10-07T10:25:41Z</time></trkpt><trkpt lat="51.9014669582" lon="-1.8322173133"><ele>157.31</ele><time>2015-10-07T10:25:54Z</time></trkpt><trkpt lat="51.9014351908" lon="-1.8322847877"><ele>155.87</ele><time>2015-10-07T10:26:00Z</time></trkpt><trkpt lat="51.9014116377" lon="-1.8323494960"><ele>156.83</ele><time>2015-10-07T10:26:05Z</time></trkpt><trkpt lat="51.9013813790" lon="-1.8323945906"><ele>156.83</ele><time>2015-10-07T10:26:09Z</time></trkpt><trkpt lat="51.9013459235" lon="-1.8324711174"><ele>156.83</ele><time>2015-10-07T10:26:14Z</time></trkpt><trkpt lat="51.9013360329" lon="-1.8325185589"><ele>157.79</ele><time>2015-10-07T10:26:17Z</time></trkpt><trkpt lat="51.9013299979" lon="-1.8325356580"><ele>155.87</ele><time>2015-10-07T10:26:19Z</time></trkpt><trkpt lat="51.9012881722" lon="-1.8326265179"><ele>158.27</ele><time>2015-10-07T10:26:27Z</time></trkpt><trkpt lat="51.9012861606" lon="-1.8326355703"><ele>156.83</ele><time>2015-10-07T10:26:29Z</time></trkpt><trkpt lat="51.9012365397" lon="-1.8327626400"><ele>157.31</ele><time>2015-10-07T10:26:38Z</time></trkpt><trkpt lat="51.9011994079" lon="-1.8328609597"><ele>156.35</ele><time>2015-10-07T10:26:46Z</time></trkpt><trkpt lat="51.9011792075" lon="-1.8329027854"><ele>157.79</ele><time>2015-10-07T10:26:49Z</time></trkpt><trkpt lat="51.9011759385" lon="-1.8329111673"><ele>155.87</ele><time>2015-10-07T10:26:50Z</time></trkpt><trkpt lat="51.9011564087" lon="-1.8329728581"><ele>156.35</ele><time>2015-10-07T10:26:55Z</time></trkpt><trkpt lat="51.9011520501" lon="-1.8329838384"><ele>157.79</ele><time>2015-10-07T10:26:56Z</time></trkpt><trkpt lat="51.9011286646" lon="-1.8330440205"><ele>158.27</ele><time>2015-10-07T10:27:00Z</time></trkpt><trkpt lat="51.9011281617" lon="-1.8330441881"><ele>157.31</ele><time>2015-10-07T10:27:01Z</time></trkpt><trkpt lat="51.9010841567" lon="-1.8331544101"><ele>156.35</ele><time>2015-10-07T10:27:08Z</time></trkpt><trkpt lat="51.9010525569" lon="-1.8332054559"><ele>156.83</ele><time>2015-10-07T10:27:13Z</time></trkpt><trkpt lat="51.9010202028" lon="-1.8332881853"><ele>157.79</ele><time>2015-10-07T10:27:19Z</time></trkpt><trkpt lat="51.9009880163" lon="-1.8333606049"><ele>157.79</ele><time>2015-10-07T10:27:25Z</time></trkpt><trkpt lat="51.9009697437" lon="-1.8334088847"><ele>156.83</ele><time>2015-10-07T10:27:29Z</time></trkpt><trkpt lat="51.9009456038" lon="-1.8334630318"><ele>159.24</ele><time>2015-10-07T10:27:32Z</time></trkpt><trkpt lat="51.9009322766" lon="-1.8334857468"><ele>156.83</ele><time>2015-10-07T10:27:35Z</time></trkpt><trkpt lat="51.9009002578" lon="-1.8335744273"><ele>156.83</ele><time>2015-10-07T10:27:41Z</time></trkpt><trkpt lat="51.9008645508" lon="-1.8336812966"><ele>157.31</ele><time>2015-10-07T10:27:49Z</time></trkpt><trkpt lat="51.9008209649" lon="-1.8337630201"><ele>158.27</ele><time>2015-10-07T10:27:56Z</time></trkpt><trkpt lat="51.9007937238" lon="-1.8338185083"><ele>157.79</ele><time>2015-10-07T10:28:01Z</time></trkpt><trkpt lat="51.9007590227" lon="-1.8339000642"><ele>158.27</ele><time>2015-10-07T10:28:07Z</time></trkpt><trkpt lat="51.9007135928" lon="-1.8340014853"><ele>156.83</ele><time>2015-10-07T10:28:17Z</time></trkpt><trkpt lat="51.9007012714" lon="-1.8340271339"><ele>159.24</ele><time>2015-10-07T10:28:19Z</time></trkpt><trkpt lat="51.9006721023" lon="-1.8340782635"><ele>158.75</ele><time>2015-10-07T10:28:23Z</time></trkpt><trkpt lat="51.9006515667" lon="-1.8341179099"><ele>160.20</ele><time>2015-10-07T10:28:27Z</time></trkpt><trkpt lat="51.9006415922" lon="-1.8341418821"><ele>159.24</ele><time>2015-10-07T10:28:29Z</time></trkpt><trkpt lat="51.9006304443" lon="-1.8341830373"><ele>159.24</ele><time>2015-10-07T10:28:33Z</time></trkpt><trkpt lat="51.9005920552" lon="-1.8342225160"><ele>159.24</ele><time>2015-10-07T10:28:43Z</time></trkpt><trkpt lat="51.9005772192" lon="-1.8342692871"><ele>159.24</ele><time>2015-10-07T10:28:53Z</time></trkpt><trkpt lat="51.9005094096" lon="-1.8342987075"><ele>159.24</ele><time>2015-10-07T10:29:07Z</time></trkpt><trkpt lat="51.9004913047" lon="-1.8343229312"><ele>158.75</ele><time>2015-10-07T10:29:21Z</time></trkpt><trkpt lat="51.9004436955" lon="-1.8343617395"><ele>159.24</ele><time>2015-10-07T10:29:33Z</time></trkpt><trkpt lat="51.9004487246" lon="-1.8344366737"><ele>159.72</ele><time>2015-10-07T10:29:46Z</time></trkpt><trkpt lat="51.9004172925" lon="-1.8344553653"><ele>160.20</ele><time>2015-10-07T10:29:57Z</time></trkpt><trkpt lat="51.9004048873" lon="-1.8344515935"><ele>160.68</ele><time>2015-10-07T10:30:05Z</time></trkpt><trkpt lat="51.9003726169" lon="-1.8344568741"><ele>159.72</ele><time>2015-10-07T10:30:16Z</time></trkpt><trkpt lat="51.9003690127" lon="-1.8344525993"><ele>160.20</ele><time>2015-10-07T10:30:32Z</time></trkpt><trkpt lat="51.9004065637" lon="-1.8344626576"><ele>160.20</ele><time>2015-10-07T10:30:38Z</time></trkpt><trkpt lat="51.9004377443" lon="-1.8343981169"><ele>159.72</ele><time>2015-10-07T10:30:49Z</time></trkpt><trkpt lat="51.9004278537" lon="-1.8343989551"><ele>156.83</ele><time>2015-10-07T10:30:53Z</time></trkpt><trkpt lat="51.9004273508" lon="-1.8343923334"><ele>161.16</ele><time>2015-10-07T10:30:54Z</time></trkpt><trkpt lat="51.9004598726" lon="-1.8343407009"><ele>159.24</ele><time>2015-10-07T10:31:14Z</time></trkpt><trkpt lat="51.9004970882" lon="-1.8343229312"><ele>163.08</ele><time>2015-10-07T10:31:19Z</time></trkpt><trkpt lat="51.9005045481" lon="-1.8343317322"><ele>157.79</ele><time>2015-10-07T10:31:20Z</time></trkpt><trkpt lat="51.9005133491" lon="-1.8343512621"><ele>158.75</ele><time>2015-10-07T10:31:21Z</time></trkpt><trkpt lat="51.9005424343" lon="-1.8344655912"><ele>161.16</ele><time>2015-10-07T10:31:28Z</time></trkpt><trkpt lat="51.9005229883" lon="-1.8345547747"><ele>163.08</ele><time>2015-10-07T10:31:37Z</time></trkpt><trkpt lat="51.9005093258" lon="-1.8346062396"><ele>165.48</ele><time>2015-10-07T10:31:39Z</time></trkpt><trkpt lat="51.9004927296" lon="-1.8346972670"><ele>162.12</ele><time>2015-10-07T10:31:42Z</time></trkpt><trkpt lat="51.9004516583" lon="-1.8347951677"><ele>164.52</ele><time>2015-10-07T10:31:47Z</time></trkpt><trkpt lat="51.9004482217" lon="-1.8348016217"><ele>160.68</ele><time>2015-10-07T10:31:48Z</time></trkpt><trkpt lat="51.9004470482" lon="-1.8348079082"><ele>163.08</ele><time>2015-10-07T10:31:49Z</time></trkpt><trkpt lat="51.9004422706" lon="-1.8348168768"><ele>165.00</ele><time>2015-10-07T10:31:51Z</time></trkpt><trkpt lat="51.9003961701" lon="-1.8349136878"><ele>162.12</ele><time>2015-10-07T10:31:56Z</time></trkpt><trkpt lat="51.9003784005" lon="-1.8349617161"><ele>165.96</ele><time>2015-10-07T10:31:58Z</time></trkpt><trkpt lat="51.9003687613" lon="-1.8349786475"><ele>165.00</ele><time>2015-10-07T10:31:59Z</time></trkpt><trkpt lat="51.9003626425" lon="-1.8349920586"><ele>161.64</ele><time>2015-10-07T10:32:00Z</time></trkpt><trkpt lat="51.9003590383" lon="-1.8349989317"><ele>162.60</ele><time>2015-10-07T10:32:01Z</time></trkpt><trkpt lat="51.9003567751" lon="-1.8350044638"><ele>165.96</ele><time>2015-10-07T10:32:02Z</time></trkpt><trkpt lat="51.9003534224" lon="-1.8350082356"><ele>165.96</ele><time>2015-10-07T10:32:03Z</time></trkpt><trkpt lat="51.9003540091" lon="-1.8350099120"><ele>165.48</ele><time>2015-10-07T10:32:04Z</time></trkpt><trkpt lat="51.9003392570" lon="-1.8350489717"><ele>166.93</ele><time>2015-10-07T10:32:06Z</time></trkpt><trkpt lat="51.9002640713" lon="-1.8352166936"><ele>162.60</ele><time>2015-10-07T10:32:14Z</time></trkpt><trkpt lat="51.9002553541" lon="-1.8352302723"><ele>166.93</ele><time>2015-10-07T10:32:16Z</time></trkpt><trkpt lat="51.9002496544" lon="-1.8352375645"><ele>165.96</ele><time>2015-10-07T10:32:17Z</time></trkpt><trkpt lat="51.9002299570" lon="-1.8352645542"><ele>166.93</ele><time>2015-10-07T10:32:19Z</time></trkpt><trkpt lat="51.9002085831" lon="-1.8353016023"><ele>165.00</ele><time>2015-10-07T10:32:21Z</time></trkpt><trkpt lat="51.9001522567" lon="-1.8354099803"><ele>166.45</ele><time>2015-10-07T10:32:29Z</time></trkpt><trkpt lat="51.9001390133" lon="-1.8354411609"><ele>165.96</ele><time>2015-10-07T10:32:31Z</time></trkpt><trkpt lat="51.9000633247" lon="-1.8355736788"><ele>166.45</ele><time>2015-10-07T10:32:41Z</time></trkpt><trkpt lat="51.9000467286" lon="-1.8355981540"><ele>166.45</ele><time>2015-10-07T10:32:43Z</time></trkpt><trkpt lat="51.8999833614" lon="-1.8357068673"><ele>166.45</ele><time>2015-10-07T10:32:51Z</time></trkpt><trkpt lat="51.8998965248" lon="-1.8358224537"><ele>165.96</ele><time>2015-10-07T10:33:03Z</time></trkpt><trkpt lat="51.8998691998" lon="-1.8358355295"><ele>165.96</ele><time>2015-10-07T10:33:11Z</time></trkpt><trkpt lat="51.8998287152" lon="-1.8359408062"><ele>166.45</ele><time>2015-10-07T10:33:17Z</time></trkpt><trkpt lat="51.8997750711" lon="-1.8362166546"><ele>167.41</ele><time>2015-10-07T10:33:34Z</time></trkpt><trkpt lat="51.8997700419" lon="-1.8362381123"><ele>166.93</ele><time>2015-10-07T10:33:35Z</time></trkpt><trkpt lat="51.8996780924" lon="-1.8364024814"><ele>165.96</ele><time>2015-10-07T10:33:44Z</time></trkpt><trkpt lat="51.8996734824" lon="-1.8364119530"><ele>168.85</ele><time>2015-10-07T10:33:45Z</time></trkpt><trkpt lat="51.8996682856" lon="-1.8364224304"><ele>168.37</ele><time>2015-10-07T10:33:46Z</time></trkpt><trkpt lat="51.8996580597" lon="-1.8364408705"><ele>167.41</ele><time>2015-10-07T10:33:48Z</time></trkpt><trkpt lat="51.8995999731" lon="-1.8365965225"><ele>167.41</ele><time>2015-10-07T10:33:55Z</time></trkpt><trkpt lat="51.8995621707" lon="-1.8366929982"><ele>167.89</ele><time>2015-10-07T10:34:02Z</time></trkpt><trkpt lat="51.8994874880" lon="-1.8369159568"><ele>168.37</ele><time>2015-10-07T10:34:13Z</time></trkpt><trkpt lat="51.8994802795" lon="-1.8369281106"><ele>167.89</ele><time>2015-10-07T10:34:14Z</time></trkpt><trkpt lat="51.8994423095" lon="-1.8370259274"><ele>168.37</ele><time>2015-10-07T10:34:19Z</time></trkpt><trkpt lat="51.8993951194" lon="-1.8371773884"><ele>168.85</ele><time>2015-10-07T10:34:28Z</time></trkpt><trkpt lat="51.8993708119" lon="-1.8372392468"><ele>167.41</ele><time>2015-10-07T10:34:31Z</time></trkpt><trkpt lat="51.8993469235" lon="-1.8373103254"><ele>168.37</ele><time>2015-10-07T10:34:37Z</time></trkpt><trkpt lat="51.8993412238" lon="-1.8373247422"><ele>168.85</ele><time>2015-10-07T10:34:38Z</time></trkpt><trkpt lat="51.8993081991" lon="-1.8373885285"><ele>165.96</ele><time>2015-10-07T10:34:41Z</time></trkpt><trkpt lat="51.8992858194" lon="-1.8374596909"><ele>168.37</ele><time>2015-10-07T10:34:44Z</time></trkpt><trkpt lat="51.8992764316" lon="-1.8374990858"><ele>168.37</ele><time>2015-10-07T10:34:47Z</time></trkpt><trkpt lat="51.8992605060" lon="-1.8375331163"><ele>171.25</ele><time>2015-10-07T10:34:49Z</time></trkpt><trkpt lat="51.8992271461" lon="-1.8376369681"><ele>169.81</ele><time>2015-10-07T10:34:55Z</time></trkpt><trkpt lat="51.8992034253" lon="-1.8376749381"><ele>170.29</ele><time>2015-10-07T10:34:59Z</time></trkpt><trkpt lat="51.8991634436" lon="-1.8377554882"><ele>168.37</ele><time>2015-10-07T10:35:03Z</time></trkpt><trkpt lat="51.8991383817" lon="-1.8378186040"><ele>170.29</ele><time>2015-10-07T10:35:08Z</time></trkpt><trkpt lat="51.8990913592" lon="-1.8379082065"><ele>169.81</ele><time>2015-10-07T10:35:13Z</time></trkpt><trkpt lat="51.8990767747" lon="-1.8379550613"><ele>170.29</ele><time>2015-10-07T10:35:16Z</time></trkpt><trkpt lat="51.8990426604" lon="-1.8380267266"><ele>169.33</ele><time>2015-10-07T10:35:20Z</time></trkpt><trkpt lat="51.8990091328" lon="-1.8381034210"><ele>170.29</ele><time>2015-10-07T10:35:26Z</time></trkpt><trkpt lat="51.8989823945" lon="-1.8381666206"><ele>170.77</ele><time>2015-10-07T10:35:32Z</time></trkpt><trkpt lat="51.8989155069" lon="-1.8382749986"><ele>169.81</ele><time>2015-10-07T10:35:42Z</time></trkpt><trkpt lat="51.8988891877" lon="-1.8383325823"><ele>169.81</ele><time>2015-10-07T10:35:47Z</time></trkpt><trkpt lat="51.8988657184" lon="-1.8383857235"><ele>169.81</ele><time>2015-10-07T10:35:51Z</time></trkpt><trkpt lat="51.8988240603" lon="-1.8385105301"><ele>170.77</ele><time>2015-10-07T10:36:03Z</time></trkpt><trkpt lat="51.8987377267" lon="-1.8386521842"><ele>169.81</ele><time>2015-10-07T10:36:15Z</time></trkpt><trkpt lat="51.8986932188" lon="-1.8387546949"><ele>170.77</ele><time>2015-10-07T10:36:25Z</time></trkpt><trkpt lat="51.8986314442" lon="-1.8389013782"><ele>170.77</ele><time>2015-10-07T10:36:36Z</time></trkpt><trkpt lat="51.8986227270" lon="-1.8389391806"><ele>170.29</ele><time>2015-10-07T10:36:39Z</time></trkpt><trkpt lat="51.8986095674" lon="-1.8389820121"><ele>170.29</ele><time>2015-10-07T10:36:42Z</time></trkpt><trkpt lat="51.8985865172" lon="-1.8390116841"><ele>169.33</ele><time>2015-10-07T10:36:45Z</time></trkpt><trkpt lat="51.8985653948" lon="-1.8390444573"><ele>170.77</ele><time>2015-10-07T10:36:48Z</time></trkpt><trkpt lat="51.8985591922" lon="-1.8390568625"><ele>170.77</ele><time>2015-10-07T10:36:49Z</time></trkpt><trkpt lat="51.8985023629" lon="-1.8392020371"><ele>170.29</ele><time>2015-10-07T10:37:00Z</time></trkpt><trkpt lat="51.8984659016" lon="-1.8392504845"><ele>170.77</ele><time>2015-10-07T10:37:05Z</time></trkpt><trkpt lat="51.8984003551" lon="-1.8393981736"><ele>170.29</ele><time>2015-10-07T10:37:17Z</time></trkpt><trkpt lat="51.8983586133" lon="-1.8394840043"><ele>169.81</ele><time>2015-10-07T10:37:24Z</time></trkpt><trkpt lat="51.8982998561" lon="-1.8395155203"><ele>169.81</ele><time>2015-10-07T10:37:37Z</time></trkpt><trkpt lat="51.8982870318" lon="-1.8395434320"><ele>168.85</ele><time>2015-10-07T10:37:57Z</time></trkpt><trkpt lat="51.8982726987" lon="-1.8395814858"><ele>170.29</ele><time>2015-10-07T10:38:11Z</time></trkpt><trkpt lat="51.8982544262" lon="-1.8396104872"><ele>169.81</ele><time>2015-10-07T10:38:14Z</time></trkpt><trkpt lat="51.8982253410" lon="-1.8396656401"><ele>169.81</ele><time>2015-10-07T10:38:19Z</time></trkpt><trkpt lat="51.8981965911" lon="-1.8397135846"><ele>169.33</ele><time>2015-10-07T10:38:23Z</time></trkpt><trkpt lat="51.8981284462" lon="-1.8398405705"><ele>169.33</ele><time>2015-10-07T10:38:34Z</time></trkpt><trkpt lat="51.8981121015" lon="-1.8398663029"><ele>169.33</ele><time>2015-10-07T10:38:36Z</time></trkpt><trkpt lat="51.8980859499" lon="-1.8399059493"><ele>169.81</ele><time>2015-10-07T10:38:39Z</time></trkpt><trkpt lat="51.8980681803" lon="-1.8399402313"><ele>168.37</ele><time>2015-10-07T10:38:42Z</time></trkpt><trkpt lat="51.8980385922" lon="-1.8400097173"><ele>168.37</ele><time>2015-10-07T10:38:47Z</time></trkpt><trkpt lat="51.8980060704" lon="-1.8400595058"><ele>168.85</ele><time>2015-10-07T10:38:51Z</time></trkpt><trkpt lat="51.8979838584" lon="-1.8401014153"><ele>167.41</ele><time>2015-10-07T10:38:54Z</time></trkpt><trkpt lat="51.8979344890" lon="-1.8401893415"><ele>167.89</ele><time>2015-10-07T10:39:02Z</time></trkpt><trkpt lat="51.8979152106" lon="-1.8402215280"><ele>166.93</ele><time>2015-10-07T10:39:05Z</time></trkpt><trkpt lat="51.8978894781" lon="-1.8402563129"><ele>167.41</ele><time>2015-10-07T10:39:09Z</time></trkpt><trkpt lat="51.8978489935" lon="-1.8403310794"><ele>168.37</ele><time>2015-10-07T10:39:15Z</time></trkpt><trkpt lat="51.8977925833" lon="-1.8404298183"><ele>167.89</ele><time>2015-10-07T10:39:24Z</time></trkpt><trkpt lat="51.8977792561" lon="-1.8404572271"><ele>167.41</ele><time>2015-10-07T10:39:26Z</time></trkpt><trkpt lat="51.8977523502" lon="-1.8405105360"><ele>166.45</ele><time>2015-10-07T10:39:31Z</time></trkpt><trkpt lat="51.8976882286" lon="-1.8406136334"><ele>167.41</ele><time>2015-10-07T10:39:41Z</time></trkpt><trkpt lat="51.8976795953" lon="-1.8406279664"><ele>166.45</ele><time>2015-10-07T10:39:42Z</time></trkpt><trkpt lat="51.8976505101" lon="-1.8406801019"><ele>166.93</ele><time>2015-10-07T10:39:47Z</time></trkpt><trkpt lat="51.8976128753" lon="-1.8407516833"><ele>166.93</ele><time>2015-10-07T10:39:53Z</time></trkpt><trkpt lat="51.8975811917" lon="-1.8407882284"><ele>167.41</ele><time>2015-10-07T10:39:57Z</time></trkpt><trkpt lat="51.8975210935" lon="-1.8409082573"><ele>166.93</ele><time>2015-10-07T10:40:07Z</time></trkpt><trkpt lat="51.8974692095" lon="-1.8409815989"><ele>167.89</ele><time>2015-10-07T10:40:16Z</time></trkpt><trkpt lat="51.8974179123" lon="-1.8410747219"><ele>167.41</ele><time>2015-10-07T10:40:24Z</time></trkpt><trkpt lat="51.8973743264" lon="-1.8411435373"><ele>166.93</ele><time>2015-10-07T10:40:35Z</time></trkpt><trkpt lat="51.8973485939" lon="-1.8411611393"><ele>166.93</ele><time>2015-10-07T10:40:46Z</time></trkpt><trkpt lat="51.8973391224" lon="-1.8411708623"><ele>164.04</ele><time>2015-10-07T10:40:55Z</time></trkpt><trkpt lat="51.8973356858" lon="-1.8411758915"><ele>167.41</ele><time>2015-10-07T10:40:56Z</time></trkpt><trkpt lat="51.8973291479" lon="-1.8411855306"><ele>168.37</ele><time>2015-10-07T10:40:58Z</time></trkpt><trkpt lat="51.8973302376" lon="-1.8413436972"><ele>168.85</ele><time>2015-10-07T10:41:08Z</time></trkpt><trkpt lat="51.8973338418" lon="-1.8413640652"><ele>168.37</ele><time>2015-10-07T10:41:09Z</time></trkpt><trkpt lat="51.8973565567" lon="-1.8414890394"><ele>167.89</ele><time>2015-10-07T10:41:16Z</time></trkpt><trkpt lat="51.8973581493" lon="-1.8415203877"><ele>170.29</ele><time>2015-10-07T10:41:18Z</time></trkpt><trkpt lat="51.8973748293" lon="-1.8415949028"><ele>168.85</ele><time>2015-10-07T10:41:23Z</time></trkpt><trkpt lat="51.8973853067" lon="-1.8416613713"><ele>169.33</ele><time>2015-10-07T10:41:30Z</time></trkpt><trkpt lat="51.8973901682" lon="-1.8416856788"><ele>171.25</ele><time>2015-10-07T10:41:33Z</time></trkpt><trkpt lat="51.8974082731" lon="-1.8417771254"><ele>172.69</ele><time>2015-10-07T10:41:41Z</time></trkpt><trkpt lat="51.8974120449" lon="-1.8418244831"><ele>168.37</ele><time>2015-10-07T10:41:54Z</time></trkpt><trkpt lat="51.8974159844" lon="-1.8418462761"><ele>172.21</ele><time>2015-10-07T10:41:55Z</time></trkpt><trkpt lat="51.8974390347" lon="-1.8419755250"><ele>174.14</ele><time>2015-10-07T10:42:04Z</time></trkpt><trkpt lat="51.8974573910" lon="-1.8421295844"><ele>175.10</ele><time>2015-10-07T10:42:15Z</time></trkpt><trkpt lat="51.8974816147" lon="-1.8422299996"><ele>176.06</ele><time>2015-10-07T10:42:24Z</time></trkpt><trkpt lat="51.8974950258" lon="-1.8423391320"><ele>175.58</ele><time>2015-10-07T10:42:36Z</time></trkpt><trkpt lat="51.8975023180" lon="-1.8423708156"><ele>177.50</ele><time>2015-10-07T10:42:39Z</time></trkpt><trkpt lat="51.8975294754" lon="-1.8425214384"><ele>177.98</ele><time>2015-10-07T10:42:48Z</time></trkpt><trkpt lat="51.8975731451" lon="-1.8426707201"><ele>179.42</ele><time>2015-10-07T10:43:00Z</time></trkpt><trkpt lat="51.8976557069" lon="-1.8427956942"><ele>177.98</ele><time>2015-10-07T10:43:11Z</time></trkpt><trkpt lat="51.8977087643" lon="-1.8428524397"><ele>181.35</ele><time>2015-10-07T10:43:19Z</time></trkpt><trkpt lat="51.8977879733" lon="-1.8429154716"><ele>181.35</ele><time>2015-10-07T10:43:29Z</time></trkpt><trkpt lat="51.8978727981" lon="-1.8430018052"><ele>183.27</ele><time>2015-10-07T10:43:40Z</time></trkpt><trkpt lat="51.8979618978" lon="-1.8430686928"><ele>182.31</ele><time>2015-10-07T10:43:51Z</time></trkpt><trkpt lat="51.8980263546" lon="-1.8431061599"><ele>183.75</ele><time>2015-10-07T10:44:01Z</time></trkpt><trkpt lat="51.8980339821" lon="-1.8431099318"><ele>183.27</ele><time>2015-10-07T10:44:02Z</time></trkpt><trkpt lat="51.8980914820" lon="-1.8431410287"><ele>184.71</ele><time>2015-10-07T10:44:12Z</time></trkpt><trkpt lat="51.8981471378" lon="-1.8431655876"><ele>185.19</ele><time>2015-10-07T10:44:27Z</time></trkpt><trkpt lat="51.8981880415" lon="-1.8431671802"><ele>187.11</ele><time>2015-10-07T10:44:32Z</time></trkpt><trkpt lat="51.8983193021" lon="-1.8432305474"><ele>186.63</ele><time>2015-10-07T10:44:45Z</time></trkpt><trkpt lat="51.8983358983" lon="-1.8432355765"><ele>188.08</ele><time>2015-10-07T10:44:47Z</time></trkpt><trkpt lat="51.8983589485" lon="-1.8432523403"><ele>187.59</ele><time>2015-10-07T10:44:51Z</time></trkpt><trkpt lat="51.8983731978" lon="-1.8432606384"><ele>189.52</ele><time>2015-10-07T10:44:53Z</time></trkpt><trkpt lat="51.8983839266" lon="-1.8432713673"><ele>187.11</ele><time>2015-10-07T10:44:55Z</time></trkpt><trkpt lat="51.8983929791" lon="-1.8432796653"><ele>190.00</ele><time>2015-10-07T10:44:57Z</time></trkpt><trkpt lat="51.8984592799" lon="-1.8433198147"><ele>190.96</ele><time>2015-10-07T10:45:06Z</time></trkpt><trkpt lat="51.8984981719" lon="-1.8433628138"><ele>190.96</ele><time>2015-10-07T10:45:15Z</time></trkpt><trkpt lat="51.8985100742" lon="-1.8433712795"><ele>190.96</ele><time>2015-10-07T10:45:35Z</time></trkpt><trkpt lat="51.8985799793" lon="-1.8434245046"><ele>191.92</ele><time>2015-10-07T10:45:46Z</time></trkpt><trkpt lat="51.8986448552" lon="-1.8434904702"><ele>190.96</ele><time>2015-10-07T10:45:57Z</time></trkpt><trkpt lat="51.8986492138" lon="-1.8434963375"><ele>193.84</ele><time>2015-10-07T10:45:58Z</time></trkpt><trkpt lat="51.8987068813" lon="-1.8435473833"><ele>192.88</ele><time>2015-10-07T10:46:07Z</time></trkpt><trkpt lat="51.8987332843" lon="-1.8435777258"><ele>194.80</ele><time>2015-10-07T10:46:11Z</time></trkpt><trkpt lat="51.8987655547" lon="-1.8436139356"><ele>193.84</ele><time>2015-10-07T10:46:17Z</time></trkpt><trkpt lat="51.8987829052" lon="-1.8436283525"><ele>196.25</ele><time>2015-10-07T10:46:19Z</time></trkpt><trkpt lat="51.8988062069" lon="-1.8436505646"><ele>192.88</ele><time>2015-10-07T10:46:23Z</time></trkpt><trkpt lat="51.8988092244" lon="-1.8436564319"><ele>196.25</ele><time>2015-10-07T10:46:24Z</time></trkpt><trkpt lat="51.8988554925" lon="-1.8437182903"><ele>196.73</ele><time>2015-10-07T10:46:34Z</time></trkpt><trkpt lat="51.8989320192" lon="-1.8437974993"><ele>198.65</ele><time>2015-10-07T10:46:43Z</time></trkpt><trkpt lat="51.8989947159" lon="-1.8438715953"><ele>197.69</ele><time>2015-10-07T10:46:52Z</time></trkpt><trkpt lat="51.8990452588" lon="-1.8439373095"><ele>199.13</ele><time>2015-10-07T10:47:01Z</time></trkpt><trkpt lat="51.8991175108" lon="-1.8440134171"><ele>200.09</ele><time>2015-10-07T10:47:19Z</time></trkpt><trkpt lat="51.8991632760" lon="-1.8440646306"><ele>200.57</ele><time>2015-10-07T10:47:24Z</time></trkpt><trkpt lat="51.8992033415" lon="-1.8441012595"><ele>201.53</ele><time>2015-10-07T10:47:28Z</time></trkpt><trkpt lat="51.8992496934" lon="-1.8441461865"><ele>201.05</ele><time>2015-10-07T10:47:33Z</time></trkpt><trkpt lat="51.8993281480" lon="-1.8442087155"><ele>201.53</ele><time>2015-10-07T10:47:43Z</time></trkpt><trkpt lat="51.8994065188" lon="-1.8442502897"><ele>202.98</ele><time>2015-10-07T10:47:54Z</time></trkpt><trkpt lat="51.8994946126" lon="-1.8443061970"><ele>202.98</ele><time>2015-10-07T10:48:04Z</time></trkpt><trkpt lat="51.8995571416" lon="-1.8443549797"><ele>204.42</ele><time>2015-10-07T10:48:12Z</time></trkpt><trkpt lat="51.8996026553" lon="-1.8443994876"><ele>204.42</ele><time>2015-10-07T10:48:24Z</time></trkpt><trkpt lat="51.8996050023" lon="-1.8444022536"><ele>203.94</ele><time>2015-10-07T10:48:38Z</time></trkpt><trkpt lat="51.8996110372" lon="-1.8444165867"><ele>202.98</ele><time>2015-10-07T10:48:48Z</time></trkpt><trkpt lat="51.8996178266" lon="-1.8444221187"><ele>203.94</ele><time>2015-10-07T10:48:58Z</time></trkpt><trkpt lat="51.8997315690" lon="-1.8445019983"><ele>204.42</ele><time>2015-10-07T10:49:09Z</time></trkpt><trkpt lat="51.8997443933" lon="-1.8445117213"><ele>204.90</ele><time>2015-10-07T10:49:10Z</time></trkpt><trkpt lat="51.8998687807" lon="-1.8445594143"><ele>205.38</ele><time>2015-10-07T10:49:21Z</time></trkpt><trkpt lat="51.8999707047" lon="-1.8445662037"><ele>205.86</ele><time>2015-10-07T10:49:32Z</time></trkpt><trkpt lat="51.9001330622" lon="-1.8446745817"><ele>206.82</ele><time>2015-10-07T10:49:44Z</time></trkpt><trkpt lat="51.9003050588" lon="-1.8447739910"><ele>206.82</ele><time>2015-10-07T10:49:55Z</time></trkpt><trkpt lat="51.9004341401" lon="-1.8448704667"><ele>206.82</ele><time>2015-10-07T10:50:08Z</time></trkpt><trkpt lat="51.9005980901" lon="-1.8449712172"><ele>207.30</ele><time>2015-10-07T10:50:19Z</time></trkpt><trkpt lat="51.9007529877" lon="-1.8450710457"><ele>206.34</ele><time>2015-10-07T10:50:33Z</time></trkpt><trkpt lat="51.9008991681" lon="-1.8451600615"><ele>206.82</ele><time>2015-10-07T10:50:45Z</time></trkpt><trkpt lat="51.9009127468" lon="-1.8451665156"><ele>206.82</ele><time>2015-10-07T10:50:46Z</time></trkpt><trkpt lat="51.9009902794" lon="-1.8452259433"><ele>207.30</ele><time>2015-10-07T10:50:57Z</time></trkpt><trkpt lat="51.9010033552" lon="-1.8452401087"><ele>206.82</ele><time>2015-10-07T10:51:00Z</time></trkpt><trkpt lat="51.9010976516" lon="-1.8453202397"><ele>206.82</ele><time>2015-10-07T10:51:11Z</time></trkpt><trkpt lat="51.9012232963" lon="-1.8453823496"><ele>206.34</ele><time>2015-10-07T10:51:24Z</time></trkpt><trkpt lat="51.9013460074" lon="-1.8454634864"><ele>205.86</ele><time>2015-10-07T10:51:36Z</time></trkpt><trkpt lat="51.9014173374" lon="-1.8455062341"><ele>206.34</ele><time>2015-10-07T10:51:42Z</time></trkpt><trkpt lat="51.9014675450" lon="-1.8455253448"><ele>207.30</ele><time>2015-10-07T10:51:47Z</time></trkpt><trkpt lat="51.9015221111" lon="-1.8455544300"><ele>206.82</ele><time>2015-10-07T10:51:53Z</time></trkpt><trkpt lat="51.9016685430" lon="-1.8456593715"><ele>206.82</ele><time>2015-10-07T10:52:08Z</time></trkpt><trkpt lat="51.9017500989" lon="-1.8457064778"><ele>207.30</ele><time>2015-10-07T10:52:17Z</time></trkpt><trkpt lat="51.9017739035" lon="-1.8457182962"><ele>207.30</ele><time>2015-10-07T10:52:19Z</time></trkpt><trkpt lat="51.9018179923" lon="-1.8457303662"><ele>207.30</ele><time>2015-10-07T10:52:23Z</time></trkpt><trkpt lat="51.9018848799" lon="-1.8457795680"><ele>207.78</ele><time>2015-10-07T10:52:30Z</time></trkpt><trkpt lat="51.9020135421" lon="-1.8458756246"><ele>207.78</ele><time>2015-10-07T10:52:44Z</time></trkpt><trkpt lat="51.9020948466" lon="-1.8459015246"><ele>207.30</ele><time>2015-10-07T10:52:56Z</time></trkpt><trkpt lat="51.9021749776" lon="-1.8459490500"><ele>205.86</ele><time>2015-10-07T10:53:06Z</time></trkpt><trkpt lat="51.9022225030" lon="-1.8460013531"><ele>206.34</ele><time>2015-10-07T10:53:21Z</time></trkpt><trkpt lat="51.9022787455" lon="-1.8460368924"><ele>205.86</ele><time>2015-10-07T10:53:28Z</time></trkpt><trkpt lat="51.9023909792" lon="-1.8461097311"><ele>205.86</ele><time>2015-10-07T10:53:41Z</time></trkpt><trkpt lat="51.9024462998" lon="-1.8461396545"><ele>206.82</ele><time>2015-10-07T10:53:47Z</time></trkpt><trkpt lat="51.9025057275" lon="-1.8461736012"><ele>206.34</ele><time>2015-10-07T10:53:53Z</time></trkpt><trkpt lat="51.9025725313" lon="-1.8462134991"><ele>207.30</ele><time>2015-10-07T10:54:00Z</time></trkpt><trkpt lat="51.9026857708" lon="-1.8462703284"><ele>206.82</ele><time>2015-10-07T10:54:12Z</time></trkpt><trkpt lat="51.9027737807" lon="-1.8463196978"><ele>206.82</ele><time>2015-10-07T10:54:20Z</time></trkpt><trkpt lat="51.9027928915" lon="-1.8463361263"><ele>206.82</ele><time>2015-10-07T10:54:22Z</time></trkpt><trkpt lat="51.9028840866" lon="-1.8464164250"><ele>206.82</ele><time>2015-10-07T10:54:33Z</time></trkpt><trkpt lat="51.9029807299" lon="-1.8464878388"><ele>207.30</ele><time>2015-10-07T10:54:44Z</time></trkpt><trkpt lat="51.9029876031" lon="-1.8464911077"><ele>207.30</ele><time>2015-10-07T10:54:48Z</time></trkpt><trkpt lat="51.9030137546" lon="-1.8465042673"><ele>207.30</ele><time>2015-10-07T10:54:50Z</time></trkpt><trkpt lat="51.9030597713" lon="-1.8465192709"><ele>206.82</ele><time>2015-10-07T10:54:55Z</time></trkpt><trkpt lat="51.9031227194" lon="-1.8465473503"><ele>206.34</ele><time>2015-10-07T10:55:01Z</time></trkpt><trkpt lat="51.9031852484" lon="-1.8465938699"><ele>206.34</ele><time>2015-10-07T10:55:07Z</time></trkpt><trkpt lat="51.9032938778" lon="-1.8466672953"><ele>206.34</ele><time>2015-10-07T10:55:20Z</time></trkpt><trkpt lat="51.9033227116" lon="-1.8466839753"><ele>205.86</ele><time>2015-10-07T10:55:23Z</time></trkpt><trkpt lat="51.9033750985" lon="-1.8467144854"><ele>205.86</ele><time>2015-10-07T10:55:29Z</time></trkpt><trkpt lat="51.9035155792" lon="-1.8467846420"><ele>205.38</ele><time>2015-10-07T10:55:43Z</time></trkpt><trkpt lat="51.9036441576" lon="-1.8468639348"><ele>204.90</ele><time>2015-10-07T10:55:55Z</time></trkpt><trkpt lat="51.9037291501" lon="-1.8469315767"><ele>205.38</ele><time>2015-10-07T10:56:04Z</time></trkpt><trkpt lat="51.9038528670" lon="-1.8470068462"><ele>204.90</ele><time>2015-10-07T10:56:16Z</time></trkpt><trkpt lat="51.9039739855" lon="-1.8470886536"><ele>204.90</ele><time>2015-10-07T10:56:29Z</time></trkpt><trkpt lat="51.9040533621" lon="-1.8471423816"><ele>204.90</ele><time>2015-10-07T10:56:38Z</time></trkpt><trkpt lat="51.9040946011" lon="-1.8471264560"><ele>204.42</ele><time>2015-10-07T10:56:44Z</time></trkpt><trkpt lat="51.9041664340" lon="-1.8471912481"><ele>204.90</ele><time>2015-10-07T10:56:51Z</time></trkpt><trkpt lat="51.9042722974" lon="-1.8472575489"><ele>205.38</ele><time>2015-10-07T10:57:02Z</time></trkpt><trkpt lat="51.9043852855" lon="-1.8473332375"><ele>204.42</ele><time>2015-10-07T10:57:15Z</time></trkpt><trkpt lat="51.9045124389" lon="-1.8474041484"><ele>202.01</ele><time>2015-10-07T10:57:29Z</time></trkpt><trkpt lat="51.9046292827" lon="-1.8474938348"><ele>200.57</ele><time>2015-10-07T10:57:42Z</time></trkpt><trkpt lat="51.9046487287" lon="-1.8475091737"><ele>201.05</ele><time>2015-10-07T10:57:44Z</time></trkpt><trkpt lat="51.9047547597" lon="-1.8475574534"><ele>200.57</ele><time>2015-10-07T10:57:55Z</time></trkpt><trkpt lat="51.9048666582" lon="-1.8476297893"><ele>200.57</ele><time>2015-10-07T10:58:07Z</time></trkpt><trkpt lat="51.9049820770" lon="-1.8477001134"><ele>200.57</ele><time>2015-10-07T10:58:19Z</time></trkpt><trkpt lat="51.9051039498" lon="-1.8477625586"><ele>201.05</ele><time>2015-10-07T10:58:31Z</time></trkpt><trkpt lat="51.9052018505" lon="-1.8478399236"><ele>202.49</ele><time>2015-10-07T10:58:42Z</time></trkpt><trkpt lat="51.9052364677" lon="-1.8478593696"><ele>202.01</ele><time>2015-10-07T10:58:53Z</time></trkpt><trkpt lat="51.9053009246" lon="-1.8479113374"><ele>202.49</ele><time>2015-10-07T10:59:09Z</time></trkpt><trkpt lat="51.9054189418" lon="-1.8479725253"><ele>205.38</ele><time>2015-10-07T10:59:25Z</time></trkpt><trkpt lat="51.9055316783" lon="-1.8480584398"><ele>205.38</ele><time>2015-10-07T10:59:40Z</time></trkpt><trkpt lat="51.9056325965" lon="-1.8481062166"><ele>207.78</ele><time>2015-10-07T10:59:52Z</time></trkpt><trkpt lat="51.9056582451" lon="-1.8481218070"><ele>207.78</ele><time>2015-10-07T10:59:55Z</time></trkpt><trkpt lat="51.9057739154" lon="-1.8482351303"><ele>209.22</ele><time>2015-10-07T11:00:11Z</time></trkpt><trkpt lat="51.9058993086" lon="-1.8482910376"><ele>211.15</ele><time>2015-10-07T11:00:23Z</time></trkpt><trkpt lat="51.9059900846" lon="-1.8483420834"><ele>212.11</ele><time>2015-10-07T11:00:35Z</time></trkpt><trkpt lat="51.9060946070" lon="-1.8484201189"><ele>213.07</ele><time>2015-10-07T11:00:48Z</time></trkpt><trkpt lat="51.9061980397" lon="-1.8484524731"><ele>214.03</ele><time>2015-10-07T11:00:59Z</time></trkpt><trkpt lat="51.9062205870" lon="-1.8484665547"><ele>213.55</ele><time>2015-10-07T11:01:01Z</time></trkpt><trkpt lat="51.9062467385" lon="-1.8484849110"><ele>214.03</ele><time>2015-10-07T11:01:04Z</time></trkpt><trkpt lat="51.9063074235" lon="-1.8485212885"><ele>214.03</ele><time>2015-10-07T11:01:10Z</time></trkpt><trkpt lat="51.9063719641" lon="-1.8485870026"><ele>214.03</ele><time>2015-10-07T11:01:17Z</time></trkpt><trkpt lat="51.9064856227" lon="-1.8486643676"><ele>215.47</ele><time>2015-10-07T11:01:29Z</time></trkpt><trkpt lat="51.9065757282" lon="-1.8486979790"><ele>214.99</ele><time>2015-10-07T11:01:39Z</time></trkpt><trkpt lat="51.9067139458" lon="-1.8488000706"><ele>214.51</ele><time>2015-10-07T11:01:53Z</time></trkpt><trkpt lat="51.9068306219" lon="-1.8488624319"><ele>214.99</ele><time>2015-10-07T11:02:05Z</time></trkpt><trkpt lat="51.9069069810" lon="-1.8489146512"><ele>215.47</ele><time>2015-10-07T11:02:14Z</time></trkpt><trkpt lat="51.9070221484" lon="-1.8489783537"><ele>214.03</ele><time>2015-10-07T11:02:26Z</time></trkpt><trkpt lat="51.9071426801" lon="-1.8490555510"><ele>213.07</ele><time>2015-10-07T11:02:37Z</time></trkpt><trkpt lat="51.9071623776" lon="-1.8490652740"><ele>213.07</ele><time>2015-10-07T11:02:49Z</time></trkpt><trkpt lat="51.9071684126" lon="-1.8490581494"><ele>213.07</ele><time>2015-10-07T11:03:06Z</time></trkpt><trkpt lat="51.9071691670" lon="-1.8490615021"><ele>212.59</ele><time>2015-10-07T11:03:28Z</time></trkpt><trkpt lat="51.9071788061" lon="-1.8490478396"><ele>213.07</ele><time>2015-10-07T11:03:33Z</time></trkpt><trkpt lat="51.9072026107" lon="-1.8489072751"><ele>212.11</ele><time>2015-10-07T11:03:44Z</time></trkpt><trkpt lat="51.9072091486" lon="-1.8488278985"><ele>211.63</ele><time>2015-10-07T11:03:52Z</time></trkpt><trkpt lat="51.9072243199" lon="-1.8487797864"><ele>212.11</ele><time>2015-10-07T11:04:06Z</time></trkpt><trkpt lat="51.9072488789" lon="-1.8487417325"><ele>212.11</ele><time>2015-10-07T11:04:13Z</time></trkpt><trkpt lat="51.9072834123" lon="-1.8485787045"><ele>211.15</ele><time>2015-10-07T11:04:24Z</time></trkpt><trkpt lat="51.9073003437" lon="-1.8485349510"><ele>210.67</ele><time>2015-10-07T11:04:27Z</time></trkpt><trkpt lat="51.9073389005" lon="-1.8483224697"><ele>210.19</ele><time>2015-10-07T11:04:39Z</time></trkpt><trkpt lat="51.9073409960" lon="-1.8483085558"><ele>209.70</ele><time>2015-10-07T11:04:40Z</time></trkpt><trkpt lat="51.9073704164" lon="-1.8482114933"><ele>209.70</ele><time>2015-10-07T11:04:47Z</time></trkpt><trkpt lat="51.9073917903" lon="-1.8481358048"><ele>208.74</ele><time>2015-10-07T11:04:53Z</time></trkpt><trkpt lat="51.9073969033" lon="-1.8481007684"><ele>208.74</ele><time>2015-10-07T11:04:55Z</time></trkpt><trkpt lat="51.9074222166" lon="-1.8480112497"><ele>208.26</ele><time>2015-10-07T11:05:01Z</time></trkpt><trkpt lat="51.9074504636" lon="-1.8478919752"><ele>207.78</ele><time>2015-10-07T11:05:08Z</time></trkpt><trkpt lat="51.9074731786" lon="-1.8477799930"><ele>207.78</ele><time>2015-10-07T11:05:15Z</time></trkpt><trkpt lat="51.9075008389" lon="-1.8476723693"><ele>206.82</ele><time>2015-10-07T11:05:22Z</time></trkpt><trkpt lat="51.9075084664" lon="-1.8476407696"><ele>206.34</ele><time>2015-10-07T11:05:24Z</time></trkpt><trkpt lat="51.9075234700" lon="-1.8475516699"><ele>206.82</ele><time>2015-10-07T11:05:29Z</time></trkpt><trkpt lat="51.9075492863" lon="-1.8474250194"><ele>205.86</ele><time>2015-10-07T11:05:38Z</time></trkpt><trkpt lat="51.9075669721" lon="-1.8472852092"><ele>205.38</ele><time>2015-10-07T11:05:46Z</time></trkpt><trkpt lat="51.9075953029" lon="-1.8470777571"><ele>203.46</ele><time>2015-10-07T11:06:00Z</time></trkpt><trkpt lat="51.9076498691" lon="-1.8468462490"><ele>202.98</ele><time>2015-10-07T11:06:15Z</time></trkpt><trkpt lat="51.9076736737" lon="-1.8467444088"><ele>202.01</ele><time>2015-10-07T11:06:21Z</time></trkpt><trkpt lat="51.9077131525" lon="-1.8466212787"><ele>202.01</ele><time>2015-10-07T11:06:27Z</time></trkpt><trkpt lat="51.9077527989" lon="-1.8464021757"><ele>201.05</ele><time>2015-10-07T11:06:40Z</time></trkpt><trkpt lat="51.9077773578" lon="-1.8462661374"><ele>199.61</ele><time>2015-10-07T11:06:50Z</time></trkpt><trkpt lat="51.9078242965" lon="-1.8460742757"><ele>198.17</ele><time>2015-10-07T11:07:02Z</time></trkpt><trkpt lat="51.9078315049" lon="-1.8460366409"><ele>198.17</ele><time>2015-10-07T11:07:04Z</time></trkpt><trkpt lat="51.9078767672" lon="-1.8458737805"><ele>197.69</ele><time>2015-10-07T11:07:15Z</time></trkpt><trkpt lat="51.9078769349" lon="-1.8458736129"><ele>197.69</ele><time>2015-10-07T11:07:16Z</time></trkpt><trkpt lat="51.9079178385" lon="-1.8457333837"><ele>196.25</ele><time>2015-10-07T11:07:25Z</time></trkpt><trkpt lat="51.9079385418" lon="-1.8456528336"><ele>195.77</ele><time>2015-10-07T11:07:29Z</time></trkpt><trkpt lat="51.9079540484" lon="-1.8456137739"><ele>195.77</ele><time>2015-10-07T11:07:31Z</time></trkpt><trkpt lat="51.9079735782" lon="-1.8455483112"><ele>195.28</ele><time>2015-10-07T11:07:35Z</time></trkpt><trkpt lat="51.9079868216" lon="-1.8454950023"><ele>195.28</ele><time>2015-10-07T11:07:38Z</time></trkpt><trkpt lat="51.9080046751" lon="-1.8454307970"><ele>193.84</ele><time>2015-10-07T11:07:43Z</time></trkpt><trkpt lat="51.9080078602" lon="-1.8453877978"><ele>194.32</ele><time>2015-10-07T11:07:47Z</time></trkpt><trkpt lat="51.9080131408" lon="-1.8453491572"><ele>193.36</ele><time>2015-10-07T11:07:49Z</time></trkpt><trkpt lat="51.9080454949" lon="-1.8452390190"><ele>192.40</ele><time>2015-10-07T11:08:00Z</time></trkpt><trkpt lat="51.9080657791" lon="-1.8451098539"><ele>191.92</ele><time>2015-10-07T11:08:07Z</time></trkpt><trkpt lat="51.9080646895" lon="-1.8450402841"><ele>190.96</ele><time>2015-10-07T11:08:12Z</time></trkpt><trkpt lat="51.9080866501" lon="-1.8449456524"><ele>190.48</ele><time>2015-10-07T11:08:18Z</time></trkpt><trkpt lat="51.9081157353" lon="-1.8448538706"><ele>189.04</ele><time>2015-10-07T11:08:24Z</time></trkpt><trkpt lat="51.9081433956" lon="-1.8447121326"><ele>188.08</ele><time>2015-10-07T11:08:32Z</time></trkpt><trkpt lat="51.9081687089" lon="-1.8446112145"><ele>187.11</ele><time>2015-10-07T11:08:38Z</time></trkpt><trkpt lat="51.9081947766" lon="-1.8445071951"><ele>186.63</ele><time>2015-10-07T11:08:44Z</time></trkpt><trkpt lat="51.9082116242" lon="-1.8443579134"><ele>185.19</ele><time>2015-10-07T11:08:53Z</time></trkpt><trkpt lat="51.9082272984" lon="-1.8442027643"><ele>184.71</ele><time>2015-10-07T11:09:05Z</time></trkpt><trkpt lat="51.9082342554" lon="-1.8440706655"><ele>184.23</ele><time>2015-10-07T11:09:18Z</time></trkpt><trkpt lat="51.9082371052" lon="-1.8439311069"><ele>182.79</ele><time>2015-10-07T11:09:30Z</time></trkpt><trkpt lat="51.9082420506" lon="-1.8436223175"><ele>181.35</ele><time>2015-10-07T11:09:48Z</time></trkpt><trkpt lat="51.9082509354" lon="-1.8435032107"><ele>180.87</ele><time>2015-10-07T11:10:03Z</time></trkpt><trkpt lat="51.9082471635" lon="-1.8434308749"><ele>181.35</ele><time>2015-10-07T11:10:21Z</time></trkpt><trkpt lat="51.9082447328" lon="-1.8432086706"><ele>180.38</ele><time>2015-10-07T11:10:36Z</time></trkpt><trkpt lat="51.9082350936" lon="-1.8431837764"><ele>179.90</ele><time>2015-10-07T11:10:38Z</time></trkpt><trkpt lat="51.9082295615" lon="-1.8431075010"><ele>179.42</ele><time>2015-10-07T11:10:45Z</time></trkpt><trkpt lat="51.9082415476" lon="-1.8429795932"><ele>178.94</ele><time>2015-10-07T11:10:52Z</time></trkpt><trkpt lat="51.9082284719" lon="-1.8428582232"><ele>178.94</ele><time>2015-10-07T11:10:57Z</time></trkpt><trkpt lat="51.9082332496" lon="-1.8428032380"><ele>178.46</ele><time>2015-10-07T11:11:00Z</time></trkpt><trkpt lat="51.9082246162" lon="-1.8425709754"><ele>177.98</ele><time>2015-10-07T11:11:13Z</time></trkpt><trkpt lat="51.9082467444" lon="-1.8423889205"><ele>177.02</ele><time>2015-10-07T11:11:25Z</time></trkpt><trkpt lat="51.9082490075" lon="-1.8423663732"><ele>176.54</ele><time>2015-10-07T11:11:27Z</time></trkpt><trkpt lat="51.9082442299" lon="-1.8422426563"><ele>176.54</ele><time>2015-10-07T11:11:34Z</time></trkpt><trkpt lat="51.9082451519" lon="-1.8421422411"><ele>175.58</ele><time>2015-10-07T11:11:40Z</time></trkpt><trkpt lat="51.9082386978" lon="-1.8420864176"><ele>175.10</ele><time>2015-10-07T11:11:43Z</time></trkpt><trkpt lat="51.9082203414" lon="-1.8418954778"><ele>174.14</ele><time>2015-10-07T11:11:57Z</time></trkpt><trkpt lat="51.9082227722" lon="-1.8418840785"><ele>174.14</ele><time>2015-10-07T11:11:58Z</time></trkpt><trkpt lat="51.9082365185" lon="-1.8417599425"><ele>173.66</ele><time>2015-10-07T11:12:06Z</time></trkpt><trkpt lat="51.9082311541" lon="-1.8415759597"><ele>172.69</ele><time>2015-10-07T11:12:18Z</time></trkpt><trkpt lat="51.9082424697" lon="-1.8413046375"><ele>171.25</ele><time>2015-10-07T11:12:31Z</time></trkpt><trkpt lat="51.9082614128" lon="-1.8411209900"><ele>170.29</ele><time>2015-10-07T11:12:41Z</time></trkpt><trkpt lat="51.9082649332" lon="-1.8410867080"><ele>169.81</ele><time>2015-10-07T11:12:43Z</time></trkpt><trkpt lat="51.9082900789" lon="-1.8409390189"><ele>169.81</ele><time>2015-10-07T11:12:51Z</time></trkpt><trkpt lat="51.9082856365" lon="-1.8408148829"><ele>170.29</ele><time>2015-10-07T11:12:58Z</time></trkpt><trkpt lat="51.9082922582" lon="-1.8407153059"><ele>170.29</ele><time>2015-10-07T11:13:03Z</time></trkpt><trkpt lat="51.9082916714" lon="-1.8406578060"><ele>169.81</ele><time>2015-10-07T11:13:07Z</time></trkpt><trkpt lat="51.9082910009" lon="-1.8406250328"><ele>169.81</ele><time>2015-10-07T11:13:09Z</time></trkpt><trkpt lat="51.9082955271" lon="-1.8405277189"><ele>168.85</ele><time>2015-10-07T11:13:15Z</time></trkpt><trkpt lat="51.9082873967" lon="-1.8403908424"><ele>168.85</ele><time>2015-10-07T11:13:23Z</time></trkpt><trkpt lat="51.9082863070" lon="-1.8403639365"><ele>168.37</ele><time>2015-10-07T11:13:25Z</time></trkpt><trkpt lat="51.9082948565" lon="-1.8402757589"><ele>168.85</ele><time>2015-10-07T11:13:31Z</time></trkpt><trkpt lat="51.9083021488" lon="-1.8402291555"><ele>168.37</ele><time>2015-10-07T11:13:34Z</time></trkpt><trkpt lat="51.9083145540" lon="-1.8401241302"><ele>166.93</ele><time>2015-10-07T11:13:41Z</time></trkpt><trkpt lat="51.9082853850" lon="-1.8399310950"><ele>166.45</ele><time>2015-10-07T11:13:55Z</time></trkpt><trkpt lat="51.9082891569" lon="-1.8398967292"><ele>166.45</ele><time>2015-10-07T11:13:57Z</time></trkpt><trkpt lat="51.9083127100" lon="-1.8397004250"><ele>165.48</ele><time>2015-10-07T11:14:08Z</time></trkpt><trkpt lat="51.9083098602" lon="-1.8396521453"><ele>165.48</ele><time>2015-10-07T11:14:11Z</time></trkpt><trkpt lat="51.9083262887" lon="-1.8394555897"><ele>164.52</ele><time>2015-10-07T11:14:24Z</time></trkpt><trkpt lat="51.9083485007" lon="-1.8391638994"><ele>164.52</ele><time>2015-10-07T11:14:40Z</time></trkpt><trkpt lat="51.9083468243" lon="-1.8391487282"><ele>164.52</ele><time>2015-10-07T11:14:41Z</time></trkpt><trkpt lat="51.9083246961" lon="-1.8390010390"><ele>163.56</ele><time>2015-10-07T11:14:49Z</time></trkpt><trkpt lat="51.9083174039" lon="-1.8388077524"><ele>162.12</ele><time>2015-10-07T11:15:02Z</time></trkpt><trkpt lat="51.9083102793" lon="-1.8386880588"><ele>161.16</ele><time>2015-10-07T11:15:11Z</time></trkpt><trkpt lat="51.9083094411" lon="-1.8385053333"><ele>159.72</ele><time>2015-10-07T11:15:22Z</time></trkpt><trkpt lat="51.9083111174" lon="-1.8384650163"><ele>159.72</ele><time>2015-10-07T11:15:26Z</time></trkpt><trkpt lat="51.9083462376" lon="-1.8381740805"><ele>157.79</ele><time>2015-10-07T11:15:41Z</time></trkpt><trkpt lat="51.9083976187" lon="-1.8380021676"><ele>156.83</ele><time>2015-10-07T11:15:54Z</time></trkpt><trkpt lat="51.9084851258" lon="-1.8378165923"><ele>155.87</ele><time>2015-10-07T11:16:07Z</time></trkpt><trkpt lat="51.9084987883" lon="-1.8377818912"><ele>155.39</ele><time>2015-10-07T11:16:09Z</time></trkpt><trkpt lat="51.9085360877" lon="-1.8376070447"><ele>154.43</ele><time>2015-10-07T11:16:18Z</time></trkpt><trkpt lat="51.9085598085" lon="-1.8375627883"><ele>153.47</ele><time>2015-10-07T11:16:21Z</time></trkpt><trkpt lat="51.9086681027" lon="-1.8372938130"><ele>152.99</ele><time>2015-10-07T11:16:36Z</time></trkpt><trkpt lat="51.9086797535" lon="-1.8372611236"><ele>152.51</ele><time>2015-10-07T11:16:38Z</time></trkpt><trkpt lat="51.9087245967" lon="-1.8371865246"><ele>152.03</ele><time>2015-10-07T11:16:51Z</time></trkpt><trkpt lat="51.9087320566" lon="-1.8371669948"><ele>151.54</ele><time>2015-10-07T11:16:57Z</time></trkpt><trkpt lat="51.9087114371" lon="-1.8370612990"><ele>151.06</ele><time>2015-10-07T11:17:09Z</time></trkpt><trkpt lat="51.9086651690" lon="-1.8369955849"><ele>151.54</ele><time>2015-10-07T11:17:18Z</time></trkpt><trkpt lat="51.9086499140" lon="-1.8369587045"><ele>151.54</ele><time>2015-10-07T11:17:20Z</time></trkpt><trkpt lat="51.9086320605" lon="-1.8369161244"><ele>151.06</ele><time>2015-10-07T11:17:24Z</time></trkpt><trkpt lat="51.9086059928" lon="-1.8368140329"><ele>150.58</ele><time>2015-10-07T11:17:30Z</time></trkpt><trkpt lat="51.9085579645" lon="-1.8366497476"><ele>150.58</ele><time>2015-10-07T11:17:42Z</time></trkpt><trkpt lat="51.9085212518" lon="-1.8365603965"><ele>151.06</ele><time>2015-10-07T11:17:48Z</time></trkpt><trkpt lat="51.9084854610" lon="-1.8364579696"><ele>150.58</ele><time>2015-10-07T11:17:52Z</time></trkpt><trkpt lat="51.9084736425" lon="-1.8364212569"><ele>150.10</ele><time>2015-10-07T11:17:57Z</time></trkpt><trkpt lat="51.9084466528" lon="-1.8363040779"><ele>151.06</ele><time>2015-10-07T11:18:02Z</time></trkpt><trkpt lat="51.9084423780" lon="-1.8362459913"><ele>150.58</ele><time>2015-10-07T11:18:05Z</time></trkpt><trkpt lat="51.9084417913" lon="-1.8361900002"><ele>151.06</ele><time>2015-10-07T11:18:08Z</time></trkpt><trkpt lat="51.9084328227" lon="-1.8361305725"><ele>150.58</ele><time>2015-10-07T11:18:13Z</time></trkpt><trkpt lat="51.9084128737" lon="-1.8360754196"><ele>150.58</ele><time>2015-10-07T11:18:17Z</time></trkpt><trkpt lat="51.9083965290" lon="-1.8360045925"><ele>150.58</ele><time>2015-10-07T11:18:21Z</time></trkpt><trkpt lat="51.9083733112" lon="-1.8359085359"><ele>151.06</ele><time>2015-10-07T11:18:27Z</time></trkpt><trkpt lat="51.9083495904" lon="-1.8357963860"><ele>150.58</ele><time>2015-10-07T11:18:37Z</time></trkpt><trkpt lat="51.9082853012" lon="-1.8355523888"><ele>150.58</ele><time>2015-10-07T11:18:49Z</time></trkpt><trkpt lat="51.9082821999" lon="-1.8355290871"><ele>150.10</ele><time>2015-10-07T11:18:51Z</time></trkpt><trkpt lat="51.9082503486" lon="-1.8354388140"><ele>149.62</ele><time>2015-10-07T11:18:59Z</time></trkpt><trkpt lat="51.9082409609" lon="-1.8353625387"><ele>150.58</ele><time>2015-10-07T11:19:11Z</time></trkpt><trkpt lat="51.9082115404" lon="-1.8352939747"><ele>151.06</ele><time>2015-10-07T11:19:15Z</time></trkpt><trkpt lat="51.9081951119" lon="-1.8352535740"><ele>150.58</ele><time>2015-10-07T11:19:18Z</time></trkpt><trkpt lat="51.9081588183" lon="-1.8351127580"><ele>150.58</ele><time>2015-10-07T11:19:27Z</time></trkpt><trkpt lat="51.9080631807" lon="-1.8349388335"><ele>150.58</ele><time>2015-10-07T11:19:40Z</time></trkpt><trkpt lat="51.9080506917" lon="-1.8349300325"><ele>150.10</ele><time>2015-10-07T11:19:41Z</time></trkpt><trkpt lat="51.9079839718" lon="-1.8347619753"><ele>151.54</ele><time>2015-10-07T11:19:53Z</time></trkpt><trkpt lat="51.9079517014" lon="-1.8346386775"><ele>151.06</ele><time>2015-10-07T11:20:01Z</time></trkpt><trkpt lat="51.9079218619" lon="-1.8346258532"><ele>151.06</ele><time>2015-10-07T11:20:13Z</time></trkpt><trkpt lat="51.9079228677" lon="-1.8345592171"><ele>151.54</ele><time>2015-10-07T11:20:31Z</time></trkpt><trkpt lat="51.9079223648" lon="-1.8344795890"><ele>151.54</ele><time>2015-10-07T11:20:36Z</time></trkpt><trkpt lat="51.9079190958" lon="-1.8343666010"><ele>150.58</ele><time>2015-10-07T11:20:43Z</time></trkpt><trkpt lat="51.9079081994" lon="-1.8342749868"><ele>151.06</ele><time>2015-10-07T11:20:49Z</time></trkpt><trkpt lat="51.9079158269" lon="-1.8341796845"><ele>151.54</ele><time>2015-10-07T11:21:01Z</time></trkpt><trkpt lat="51.9079195987" lon="-1.8341547064"><ele>151.06</ele><time>2015-10-07T11:21:21Z</time></trkpt><trkpt lat="51.9079278130" lon="-1.8341566343"><ele>151.06</ele><time>2015-10-07T11:21:34Z</time></trkpt><trkpt lat="51.9079311658" lon="-1.8340895791"><ele>151.06</ele><time>2015-10-07T11:21:52Z</time></trkpt><trkpt lat="51.9079542998" lon="-1.8339502718"><ele>151.54</ele><time>2015-10-07T11:22:01Z</time></trkpt><trkpt lat="51.9079737458" lon="-1.8338859826"><ele>151.06</ele><time>2015-10-07T11:22:06Z</time></trkpt><trkpt lat="51.9079905935" lon="-1.8337934464"><ele>151.54</ele><time>2015-10-07T11:22:11Z</time></trkpt><trkpt lat="51.9079990592" lon="-1.8336865772"><ele>151.06</ele><time>2015-10-07T11:22:17Z</time></trkpt><trkpt lat="51.9080097880" lon="-1.8335751817"><ele>151.06</ele><time>2015-10-07T11:22:24Z</time></trkpt><trkpt lat="51.9080266356" lon="-1.8335155025"><ele>151.06</ele><time>2015-10-07T11:22:28Z</time></trkpt><trkpt lat="51.9080488477" lon="-1.8334139977"><ele>151.06</ele><time>2015-10-07T11:22:34Z</time></trkpt><trkpt lat="51.9080734905" lon="-1.8333556596"><ele>150.58</ele><time>2015-10-07T11:22:37Z</time></trkpt><trkpt lat="51.9080930203" lon="-1.8332806416"><ele>150.58</ele><time>2015-10-07T11:22:42Z</time></trkpt><trkpt lat="51.9081291463" lon="-1.8331813999"><ele>150.58</ele><time>2015-10-07T11:22:49Z</time></trkpt><trkpt lat="51.9081493467" lon="-1.8330700044"><ele>150.58</ele><time>2015-10-07T11:22:55Z</time></trkpt><trkpt lat="51.9081757497" lon="-1.8329603691"><ele>151.06</ele><time>2015-10-07T11:23:02Z</time></trkpt><trkpt lat="51.9081978779" lon="-1.8328763824"><ele>150.58</ele><time>2015-10-07T11:23:09Z</time></trkpt><trkpt lat="51.9082227722" lon="-1.8327499833"><ele>151.54</ele><time>2015-10-07T11:23:16Z</time></trkpt><trkpt lat="51.9082517736" lon="-1.8326403480"><ele>151.06</ele><time>2015-10-07T11:23:23Z</time></trkpt><trkpt lat="51.9082917552" lon="-1.8325414415"><ele>151.06</ele><time>2015-10-07T11:23:30Z</time></trkpt><trkpt lat="51.9083803520" lon="-1.8323784973"><ele>151.54</ele><time>2015-10-07T11:23:41Z</time></trkpt><trkpt lat="51.9084076770" lon="-1.8323435448"><ele>151.06</ele><time>2015-10-07T11:23:44Z</time></trkpt><trkpt lat="51.9084586389" lon="-1.8323036470"><ele>150.58</ele><time>2015-10-07T11:23:49Z</time></trkpt><trkpt lat="51.9085647538" lon="-1.8323595542"><ele>150.10</ele><time>2015-10-07T11:24:03Z</time></trkpt><trkpt lat="51.9086039811" lon="-1.8324034754"><ele>150.10</ele><time>2015-10-07T11:24:15Z</time></trkpt><trkpt lat="51.9086981099" lon="-1.8324555270"><ele>149.62</ele><time>2015-10-07T11:24:28Z</time></trkpt><trkpt lat="51.9088026322" lon="-1.8325191457"><ele>150.10</ele><time>2015-10-07T11:24:41Z</time></trkpt><trkpt lat="51.9088361599" lon="-1.8325658329"><ele>150.58</ele><time>2015-10-07T11:24:56Z</time></trkpt><trkpt lat="51.9088330586" lon="-1.8326523341"><ele>151.54</ele><time>2015-10-07T11:25:08Z</time></trkpt><trkpt lat="51.9088461343" lon="-1.8326374982"><ele>150.58</ele><time>2015-10-07T11:25:20Z</time></trkpt><trkpt lat="51.9088546839" lon="-1.8326736242"><ele>151.06</ele><time>2015-10-07T11:25:33Z</time></trkpt><trkpt lat="51.9088405184" lon="-1.8327848520"><ele>151.06</ele><time>2015-10-07T11:25:43Z</time></trkpt><trkpt lat="51.9087706134" lon="-1.8328520749"><ele>151.54</ele><time>2015-10-07T11:25:53Z</time></trkpt><trkpt lat="51.9087188970" lon="-1.8329124246"><ele>151.06</ele><time>2015-10-07T11:26:07Z</time></trkpt><trkpt lat="51.9087268598" lon="-1.8329006061"><ele>150.58</ele><time>2015-10-07T11:26:28Z</time></trkpt><trkpt lat="51.9087209925" lon="-1.8328678329"><ele>150.10</ele><time>2015-10-07T11:26:44Z</time></trkpt><trkpt lat="51.9087424502" lon="-1.8328273483"><ele>150.58</ele><time>2015-10-07T11:26:49Z</time></trkpt><trkpt lat="51.9088178873" lon="-1.8327386677"><ele>150.58</ele><time>2015-10-07T11:26:56Z</time></trkpt><trkpt lat="51.9088535104" lon="-1.8326994404"><ele>151.06</ele><time>2015-10-07T11:27:09Z</time></trkpt><trkpt lat="51.9088757224" lon="-1.8326402642"><ele>151.06</ele><time>2015-10-07T11:27:19Z</time></trkpt><trkpt lat="51.9089315459" lon="-1.8326362409"><ele>150.58</ele><time>2015-10-07T11:27:29Z</time></trkpt><trkpt lat="51.9089194760" lon="-1.8327267654"><ele>152.03</ele><time>2015-10-07T11:27:36Z</time></trkpt><trkpt lat="51.9089259300" lon="-1.8327784818"><ele>152.51</ele><time>2015-10-07T11:27:39Z</time></trkpt><trkpt lat="51.9089300372" lon="-1.8328546733"><ele>152.99</ele><time>2015-10-07T11:27:45Z</time></trkpt><trkpt lat="51.9089352340" lon="-1.8329695892"><ele>153.95</ele><time>2015-10-07T11:27:54Z</time></trkpt><trkpt lat="51.9089792389" lon="-1.8331048731"><ele>154.91</ele><time>2015-10-07T11:28:04Z</time></trkpt><trkpt lat="51.9090788998" lon="-1.8332107365"><ele>156.83</ele><time>2015-10-07T11:28:16Z</time></trkpt><trkpt lat="51.9091213122" lon="-1.8332243990"><ele>156.83</ele><time>2015-10-07T11:28:21Z</time></trkpt><trkpt lat="51.9092008565" lon="-1.8331689946"><ele>156.83</ele><time>2015-10-07T11:28:33Z</time></trkpt><trkpt lat="51.9092184585" lon="-1.8331251573"><ele>156.35</ele><time>2015-10-07T11:28:36Z</time></trkpt><trkpt lat="51.9092345517" lon="-1.8330831639"><ele>156.35</ele><time>2015-10-07T11:28:40Z</time></trkpt><trkpt lat="51.9092676602" lon="-1.8329909630"><ele>155.39</ele><time>2015-10-07T11:28:47Z</time></trkpt><trkpt lat="51.9092840888" lon="-1.8329537474"><ele>154.91</ele><time>2015-10-07T11:28:50Z</time></trkpt><trkpt lat="51.9093002658" lon="-1.8328971695"><ele>154.91</ele><time>2015-10-07T11:28:53Z</time></trkpt><trkpt lat="51.9093076419" lon="-1.8328607082"><ele>154.43</ele><time>2015-10-07T11:28:56Z</time></trkpt><trkpt lat="51.9093237352" lon="-1.8328147754"><ele>154.43</ele><time>2015-10-07T11:28:59Z</time></trkpt><trkpt lat="51.9093419239" lon="-1.8327811640"><ele>153.95</ele><time>2015-10-07T11:29:02Z</time></trkpt><trkpt lat="51.9093595259" lon="-1.8327404279"><ele>153.47</ele><time>2015-10-07T11:29:05Z</time></trkpt><trkpt lat="51.9093898684" lon="-1.8326856941"><ele>152.99</ele><time>2015-10-07T11:29:10Z</time></trkpt><trkpt lat="51.9094258267" lon="-1.8325965945"><ele>152.03</ele><time>2015-10-07T11:29:17Z</time></trkpt><trkpt lat="51.9094469491" lon="-1.8325494882"><ele>152.03</ele><time>2015-10-07T11:29:22Z</time></trkpt><trkpt lat="51.9094625395" lon="-1.8325118534"><ele>151.54</ele><time>2015-10-07T11:29:24Z</time></trkpt><trkpt lat="51.9094758667" lon="-1.8324752245"><ele>151.54</ele><time>2015-10-07T11:29:28Z</time></trkpt><trkpt lat="51.9095166028" lon="-1.8324043136"><ele>151.54</ele><time>2015-10-07T11:29:35Z</time></trkpt><trkpt lat="51.9095331989" lon="-1.8323556148"><ele>151.54</ele><time>2015-10-07T11:29:38Z</time></trkpt><trkpt lat="51.9095431734" lon="-1.8323115259"><ele>151.06</ele><time>2015-10-07T11:29:41Z</time></trkpt><trkpt lat="51.9095645472" lon="-1.8322089314"><ele>151.06</ele><time>2015-10-07T11:29:47Z</time></trkpt><trkpt lat="51.9095653854" lon="-1.8321309797"><ele>150.58</ele><time>2015-10-07T11:29:52Z</time></trkpt><trkpt lat="51.9095945545" lon="-1.8320443109"><ele>150.58</ele><time>2015-10-07T11:29:58Z</time></trkpt><trkpt lat="51.9096099772" lon="-1.8319775071"><ele>150.10</ele><time>2015-10-07T11:30:03Z</time></trkpt><trkpt lat="51.9096266571" lon="-1.8319392018"><ele>150.58</ele><time>2015-10-07T11:30:16Z</time></trkpt><trkpt lat="51.9096256513" lon="-1.8319084402"><ele>150.58</ele><time>2015-10-07T11:30:28Z</time></trkpt><trkpt lat="51.9096286688" lon="-1.8317839690"><ele>150.10</ele><time>2015-10-07T11:30:37Z</time></trkpt><trkpt lat="51.9096399844" lon="-1.8316761777"><ele>150.10</ele><time>2015-10-07T11:30:49Z</time></trkpt><trkpt lat="51.9096371345" lon="-1.8316215277"><ele>150.10</ele><time>2015-10-07T11:30:52Z</time></trkpt><trkpt lat="51.9096424989" lon="-1.8315579928"><ele>149.62</ele><time>2015-10-07T11:30:57Z</time></trkpt><trkpt lat="51.9096537307" lon="-1.8314666301"><ele>149.14</ele><time>2015-10-07T11:31:03Z</time></trkpt><trkpt lat="51.9096567482" lon="-1.8314088788"><ele>149.14</ele><time>2015-10-07T11:31:06Z</time></trkpt><trkpt lat="51.9096528925" lon="-1.8313619401"><ele>149.62</ele><time>2015-10-07T11:31:09Z</time></trkpt><trkpt lat="51.9096585922" lon="-1.8312617764"><ele>148.66</ele><time>2015-10-07T11:31:15Z</time></trkpt><trkpt lat="51.9096523058" lon="-1.8311812263"><ele>149.14</ele><time>2015-10-07T11:31:20Z</time></trkpt><trkpt lat="51.9096514676" lon="-1.8311285041"><ele>149.14</ele><time>2015-10-07T11:31:23Z</time></trkpt><trkpt lat="51.9096525572" lon="-1.8310810626"><ele>148.66</ele><time>2015-10-07T11:31:26Z</time></trkpt><trkpt lat="51.9096516352" lon="-1.8310293462"><ele>148.66</ele><time>2015-10-07T11:31:29Z</time></trkpt><trkpt lat="51.9096416607" lon="-1.8308633845"><ele>149.14</ele><time>2015-10-07T11:31:40Z</time></trkpt><trkpt lat="51.9096391462" lon="-1.8308189604"><ele>148.66</ele><time>2015-10-07T11:31:43Z</time></trkpt><trkpt lat="51.9096380565" lon="-1.8307696749"><ele>148.18</ele><time>2015-10-07T11:31:47Z</time></trkpt><trkpt lat="51.9096360449" lon="-1.8307346385"><ele>148.66</ele><time>2015-10-07T11:31:49Z</time></trkpt><trkpt lat="51.9096373022" lon="-1.8306275178"><ele>148.66</ele><time>2015-10-07T11:31:55Z</time></trkpt><trkpt lat="51.9096546527" lon="-1.8304849416"><ele>148.66</ele><time>2015-10-07T11:32:02Z</time></trkpt><trkpt lat="51.9097017590" lon="-1.8302592169"><ele>149.14</ele><time>2015-10-07T11:32:15Z</time></trkpt><trkpt lat="51.9096932095" lon="-1.8301619031"><ele>148.66</ele><time>2015-10-07T11:32:22Z</time></trkpt><trkpt lat="51.9097236358" lon="-1.8300206680"><ele>148.18</ele><time>2015-10-07T11:32:35Z</time></trkpt><trkpt lat="51.9097441714" lon="-1.8299935106"><ele>148.66</ele><time>2015-10-07T11:32:44Z</time></trkpt><trkpt lat="51.9097373821" lon="-1.8298340868"><ele>148.66</ele><time>2015-10-07T11:32:55Z</time></trkpt><trkpt lat="51.9097263180" lon="-1.8297464959"><ele>148.66</ele><time>2015-10-07T11:33:01Z</time></trkpt><trkpt lat="51.9097341131" lon="-1.8296704721"><ele>148.66</ele><time>2015-10-07T11:33:06Z</time></trkpt><trkpt lat="51.9097398967" lon="-1.8295481801"><ele>148.66</ele><time>2015-10-07T11:33:13Z</time></trkpt><trkpt lat="51.9097372144" lon="-1.8294693064"><ele>148.66</ele><time>2015-10-07T11:33:17Z</time></trkpt><trkpt lat="51.9097257312" lon="-1.8293470144"><ele>148.18</ele><time>2015-10-07T11:33:24Z</time></trkpt><trkpt lat="51.9097450934" lon="-1.8291984871"><ele>148.18</ele><time>2015-10-07T11:33:33Z</time></trkpt><trkpt lat="51.9097531401" lon="-1.8291006703"><ele>148.18</ele><time>2015-10-07T11:33:43Z</time></trkpt><trkpt lat="51.9097579177" lon="-1.8290932942"><ele>148.18</ele><time>2015-10-07T11:33:45Z</time></trkpt><trkpt lat="51.9097345322" lon="-1.8290179409"><ele>149.14</ele><time>2015-10-07T11:33:57Z</time></trkpt><trkpt lat="51.9097227976" lon="-1.8290092237"><ele>152.51</ele><time>2015-10-07T11:34:01Z</time></trkpt><trkpt lat="51.9097206183" lon="-1.8290098943"><ele>149.14</ele><time>2015-10-07T11:34:04Z</time></trkpt><trkpt lat="51.9097205345" lon="-1.8290095590"><ele>149.14</ele><time>2015-10-07T11:34:05Z</time></trkpt></trkseg></trk></gpx>